<?xml version="1.0" encoding="UTF-8" standalone="no" ?>
<gpx xmlns="http://www.topografix.com/GPX/1/1" xmlns:xsi="http://www.w3.org/2001/XMLSchema-instance" xsi:schemaLocation="http://www.topografix.com/GPX/1/1 http://www.topografix.com/GPX/1/1/gpx.xsd" version="1.1" creator="VisuGPX - https://www.visugpx.com">
  <metadata>
    <name>rando des petits souliers-04-03 16:47:33</name>
  </metadata>
  <trk>
    <name><![CDATA[DDD2-04-03 16:47:33]]></name>
    <trkseg>
      <trkpt lat="49.53391" lon="-1.53082">
        <ele>-33.51</ele>
        <time>2022-04-03T07:18:03Z</time>
      </trkpt>
      <trkpt lat="49.53396" lon="-1.53083">
        <ele>-29.18</ele>
        <time>2022-04-03T07:18:09Z</time>
      </trkpt>
      <trkpt lat="49.53396" lon="-1.53083">
        <ele>-25.34</ele>
        <time>2022-04-03T07:18:10Z</time>
      </trkpt>
      <trkpt lat="49.53396" lon="-1.53083">
        <ele>-21.01</ele>
        <time>2022-04-03T07:18:11Z</time>
      </trkpt>
      <trkpt lat="49.53396" lon="-1.53083">
        <ele>-17.17</ele>
        <time>2022-04-03T07:18:12Z</time>
      </trkpt>
      <trkpt lat="49.53395" lon="-1.53083">
        <ele>-13.32</ele>
        <time>2022-04-03T07:18:13Z</time>
      </trkpt>
      <trkpt lat="49.53395" lon="-1.53082">
        <ele>-9.96</ele>
        <time>2022-04-03T07:18:14Z</time>
      </trkpt>
      <trkpt lat="49.53395" lon="-1.53083">
        <ele>-6.59</ele>
        <time>2022-04-03T07:18:15Z</time>
      </trkpt>
      <trkpt lat="49.53395" lon="-1.53083">
        <ele>-3.23</ele>
        <time>2022-04-03T07:18:16Z</time>
      </trkpt>
      <trkpt lat="49.53395" lon="-1.53083">
        <ele>0.14</ele>
        <time>2022-04-03T07:18:17Z</time>
      </trkpt>
      <trkpt lat="49.53394" lon="-1.53083">
        <ele>3.5</ele>
        <time>2022-04-03T07:18:18Z</time>
      </trkpt>
      <trkpt lat="49.53394" lon="-1.53083">
        <ele>6.39</ele>
        <time>2022-04-03T07:18:19Z</time>
      </trkpt>
      <trkpt lat="49.53395" lon="-1.53083">
        <ele>12.15</ele>
        <time>2022-04-03T07:18:21Z</time>
      </trkpt>
      <trkpt lat="49.53395" lon="-1.53083">
        <ele>17.44</ele>
        <time>2022-04-03T07:18:23Z</time>
      </trkpt>
      <trkpt lat="49.53394" lon="-1.53083">
        <ele>22.25</ele>
        <time>2022-04-03T07:18:25Z</time>
      </trkpt>
      <trkpt lat="49.53394" lon="-1.53083">
        <ele>26.57</ele>
        <time>2022-04-03T07:18:27Z</time>
      </trkpt>
      <trkpt lat="49.53396" lon="-1.53083">
        <ele>30.9</ele>
        <time>2022-04-03T07:18:29Z</time>
      </trkpt>
      <trkpt lat="49.53398" lon="-1.53082">
        <ele>36.67</ele>
        <time>2022-04-03T07:18:31Z</time>
      </trkpt>
      <trkpt lat="49.53399" lon="-1.53081">
        <ele>36.67</ele>
        <time>2022-04-03T07:18:32Z</time>
      </trkpt>
      <trkpt lat="49.53401" lon="-1.53079">
        <ele>40.03</ele>
        <time>2022-04-03T07:18:34Z</time>
      </trkpt>
      <trkpt lat="49.53403" lon="-1.53077">
        <ele>42.92</ele>
        <time>2022-04-03T07:18:36Z</time>
      </trkpt>
      <trkpt lat="49.53407" lon="-1.53074">
        <ele>47.24</ele>
        <time>2022-04-03T07:18:39Z</time>
      </trkpt>
      <trkpt lat="49.5341" lon="-1.53071">
        <ele>51.09</ele>
        <time>2022-04-03T07:18:42Z</time>
      </trkpt>
      <trkpt lat="49.53413" lon="-1.53069">
        <ele>52.53</ele>
        <time>2022-04-03T07:18:44Z</time>
      </trkpt>
      <trkpt lat="49.5342" lon="-1.53062">
        <ele>56.37</ele>
        <time>2022-04-03T07:18:49Z</time>
      </trkpt>
      <trkpt lat="49.53425" lon="-1.53058">
        <ele>59.74</ele>
        <time>2022-04-03T07:18:53Z</time>
      </trkpt>
      <trkpt lat="49.5343" lon="-1.53053">
        <ele>63.1</ele>
        <time>2022-04-03T07:18:57Z</time>
      </trkpt>
      <trkpt lat="49.53432" lon="-1.53052">
        <ele>63.58</ele>
        <time>2022-04-03T07:18:58Z</time>
      </trkpt>
      <trkpt lat="49.53443" lon="-1.53046">
        <ele>66.95</ele>
        <time>2022-04-03T07:19:06Z</time>
      </trkpt>
      <trkpt lat="49.53445" lon="-1.53046">
        <ele>67.91</ele>
        <time>2022-04-03T07:19:07Z</time>
      </trkpt>
      <trkpt lat="49.53459" lon="-1.53064">
        <ele>69.35</ele>
        <time>2022-04-03T07:19:21Z</time>
      </trkpt>
      <trkpt lat="49.53478" lon="-1.53079">
        <ele>69.35</ele>
        <time>2022-04-03T07:19:36Z</time>
      </trkpt>
      <trkpt lat="49.53488" lon="-1.53075">
        <ele>72.72</ele>
        <time>2022-04-03T07:19:43Z</time>
      </trkpt>
      <trkpt lat="49.53494" lon="-1.53074">
        <ele>74.16</ele>
        <time>2022-04-03T07:19:47Z</time>
      </trkpt>
      <trkpt lat="49.53509" lon="-1.53075">
        <ele>77.04</ele>
        <time>2022-04-03T07:19:57Z</time>
      </trkpt>
      <trkpt lat="49.53527" lon="-1.53083">
        <ele>79.93</ele>
        <time>2022-04-03T07:20:09Z</time>
      </trkpt>
      <trkpt lat="49.53557" lon="-1.53092">
        <ele>82.33</ele>
        <time>2022-04-03T07:20:29Z</time>
      </trkpt>
      <trkpt lat="49.53585" lon="-1.53079">
        <ele>83.77</ele>
        <time>2022-04-03T07:20:47Z</time>
      </trkpt>
      <trkpt lat="49.5361" lon="-1.53068">
        <ele>84.73</ele>
        <time>2022-04-03T07:21:03Z</time>
      </trkpt>
      <trkpt lat="49.53641" lon="-1.53055">
        <ele>85.69</ele>
        <time>2022-04-03T07:21:23Z</time>
      </trkpt>
      <trkpt lat="49.53667" lon="-1.53062">
        <ele>86.18</ele>
        <time>2022-04-03T07:21:40Z</time>
      </trkpt>
      <trkpt lat="49.53684" lon="-1.53083">
        <ele>88.1</ele>
        <time>2022-04-03T07:21:55Z</time>
      </trkpt>
      <trkpt lat="49.53687" lon="-1.53092">
        <ele>88.58</ele>
        <time>2022-04-03T07:21:59Z</time>
      </trkpt>
      <trkpt lat="49.53686" lon="-1.531">
        <ele>88.1</ele>
        <time>2022-04-03T07:22:02Z</time>
      </trkpt>
      <trkpt lat="49.53685" lon="-1.53102">
        <ele>88.1</ele>
        <time>2022-04-03T07:22:03Z</time>
      </trkpt>
      <trkpt lat="49.53664" lon="-1.53118">
        <ele>88.1</ele>
        <time>2022-04-03T07:22:18Z</time>
      </trkpt>
      <trkpt lat="49.53654" lon="-1.53123">
        <ele>88.1</ele>
        <time>2022-04-03T07:22:25Z</time>
      </trkpt>
      <trkpt lat="49.53636" lon="-1.53133">
        <ele>88.1</ele>
        <time>2022-04-03T07:22:37Z</time>
      </trkpt>
      <trkpt lat="49.53629" lon="-1.53145">
        <ele>88.1</ele>
        <time>2022-04-03T07:22:51Z</time>
      </trkpt>
      <trkpt lat="49.5364" lon="-1.53175">
        <ele>88.1</ele>
        <time>2022-04-03T07:23:07Z</time>
      </trkpt>
      <trkpt lat="49.5364" lon="-1.53177">
        <ele>88.1</ele>
        <time>2022-04-03T07:23:08Z</time>
      </trkpt>
      <trkpt lat="49.53638" lon="-1.53188">
        <ele>88.1</ele>
        <time>2022-04-03T07:23:12Z</time>
      </trkpt>
      <trkpt lat="49.53629" lon="-1.53201">
        <ele>86.66</ele>
        <time>2022-04-03T07:23:19Z</time>
      </trkpt>
      <trkpt lat="49.53626" lon="-1.53245">
        <ele>86.18</ele>
        <time>2022-04-03T07:23:34Z</time>
      </trkpt>
      <trkpt lat="49.53634" lon="-1.53287">
        <ele>85.69</ele>
        <time>2022-04-03T07:23:52Z</time>
      </trkpt>
      <trkpt lat="49.53647" lon="-1.53311">
        <ele>85.21</ele>
        <time>2022-04-03T07:24:06Z</time>
      </trkpt>
      <trkpt lat="49.53655" lon="-1.53308">
        <ele>86.66</ele>
        <time>2022-04-03T07:24:11Z</time>
      </trkpt>
      <trkpt lat="49.53663" lon="-1.53307">
        <ele>86.66</ele>
        <time>2022-04-03T07:24:18Z</time>
      </trkpt>
      <trkpt lat="49.53665" lon="-1.53306">
        <ele>87.14</ele>
        <time>2022-04-03T07:24:20Z</time>
      </trkpt>
      <trkpt lat="49.53668" lon="-1.53307">
        <ele>86.66</ele>
        <time>2022-04-03T07:24:24Z</time>
      </trkpt>
      <trkpt lat="49.5368" lon="-1.53305">
        <ele>86.66</ele>
        <time>2022-04-03T07:24:34Z</time>
      </trkpt>
      <trkpt lat="49.53691" lon="-1.53306">
        <ele>87.62</ele>
        <time>2022-04-03T07:24:46Z</time>
      </trkpt>
      <trkpt lat="49.53717" lon="-1.53298">
        <ele>87.62</ele>
        <time>2022-04-03T07:25:01Z</time>
      </trkpt>
      <trkpt lat="49.53748" lon="-1.53293">
        <ele>88.1</ele>
        <time>2022-04-03T07:25:16Z</time>
      </trkpt>
      <trkpt lat="49.53764" lon="-1.5329">
        <ele>88.58</ele>
        <time>2022-04-03T07:25:27Z</time>
      </trkpt>
      <trkpt lat="49.53787" lon="-1.53278">
        <ele>88.58</ele>
        <time>2022-04-03T07:25:42Z</time>
      </trkpt>
      <trkpt lat="49.5381" lon="-1.53244">
        <ele>89.54</ele>
        <time>2022-04-03T07:26:01Z</time>
      </trkpt>
      <trkpt lat="49.53826" lon="-1.53208">
        <ele>90.98</ele>
        <time>2022-04-03T07:26:19Z</time>
      </trkpt>
      <trkpt lat="49.53844" lon="-1.53178">
        <ele>91.94</ele>
        <time>2022-04-03T07:26:35Z</time>
      </trkpt>
      <trkpt lat="49.53851" lon="-1.53152">
        <ele>92.42</ele>
        <time>2022-04-03T07:26:50Z</time>
      </trkpt>
      <trkpt lat="49.5385" lon="-1.53149">
        <ele>92.42</ele>
        <time>2022-04-03T07:26:55Z</time>
      </trkpt>
      <trkpt lat="49.53833" lon="-1.53121">
        <ele>92.9</ele>
        <time>2022-04-03T07:27:10Z</time>
      </trkpt>
      <trkpt lat="49.53812" lon="-1.53087">
        <ele>92.9</ele>
        <time>2022-04-03T07:27:27Z</time>
      </trkpt>
      <trkpt lat="49.5381" lon="-1.53082">
        <ele>92.9</ele>
        <time>2022-04-03T07:27:29Z</time>
      </trkpt>
      <trkpt lat="49.5381" lon="-1.53077">
        <ele>92.9</ele>
        <time>2022-04-03T07:27:31Z</time>
      </trkpt>
      <trkpt lat="49.53826" lon="-1.53058">
        <ele>92.9</ele>
        <time>2022-04-03T07:27:44Z</time>
      </trkpt>
      <trkpt lat="49.53833" lon="-1.53059">
        <ele>92.9</ele>
        <time>2022-04-03T07:27:48Z</time>
      </trkpt>
      <trkpt lat="49.53857" lon="-1.53053">
        <ele>92.9</ele>
        <time>2022-04-03T07:28:04Z</time>
      </trkpt>
      <trkpt lat="49.53875" lon="-1.53031">
        <ele>92.9</ele>
        <time>2022-04-03T07:28:17Z</time>
      </trkpt>
      <trkpt lat="49.5388" lon="-1.53006">
        <ele>92.9</ele>
        <time>2022-04-03T07:28:31Z</time>
      </trkpt>
      <trkpt lat="49.53884" lon="-1.52999">
        <ele>91.94</ele>
        <time>2022-04-03T07:28:37Z</time>
      </trkpt>
      <trkpt lat="49.53889" lon="-1.53001">
        <ele>91.94</ele>
        <time>2022-04-03T07:28:41Z</time>
      </trkpt>
      <trkpt lat="49.53894" lon="-1.53007">
        <ele>91.94</ele>
        <time>2022-04-03T07:28:46Z</time>
      </trkpt>
      <trkpt lat="49.53911" lon="-1.53003">
        <ele>90.98</ele>
        <time>2022-04-03T07:29:00Z</time>
      </trkpt>
      <trkpt lat="49.53928" lon="-1.53002">
        <ele>89.54</ele>
        <time>2022-04-03T07:29:13Z</time>
      </trkpt>
      <trkpt lat="49.53936" lon="-1.53002">
        <ele>89.54</ele>
        <time>2022-04-03T07:29:18Z</time>
      </trkpt>
      <trkpt lat="49.53961" lon="-1.52997">
        <ele>89.54</ele>
        <time>2022-04-03T07:29:32Z</time>
      </trkpt>
      <trkpt lat="49.53984" lon="-1.52986">
        <ele>90.02</ele>
        <time>2022-04-03T07:29:48Z</time>
      </trkpt>
      <trkpt lat="49.54007" lon="-1.52974">
        <ele>90.02</ele>
        <time>2022-04-03T07:30:04Z</time>
      </trkpt>
      <trkpt lat="49.54024" lon="-1.52959">
        <ele>90.02</ele>
        <time>2022-04-03T07:30:18Z</time>
      </trkpt>
      <trkpt lat="49.54037" lon="-1.52941">
        <ele>88.58</ele>
        <time>2022-04-03T07:30:30Z</time>
      </trkpt>
      <trkpt lat="49.54039" lon="-1.52938">
        <ele>88.58</ele>
        <time>2022-04-03T07:30:31Z</time>
      </trkpt>
      <trkpt lat="49.54046" lon="-1.52926">
        <ele>88.58</ele>
        <time>2022-04-03T07:30:36Z</time>
      </trkpt>
      <trkpt lat="49.54043" lon="-1.52902">
        <ele>88.58</ele>
        <time>2022-04-03T07:30:46Z</time>
      </trkpt>
      <trkpt lat="49.54045" lon="-1.52894">
        <ele>88.58</ele>
        <time>2022-04-03T07:30:49Z</time>
      </trkpt>
      <trkpt lat="49.5407" lon="-1.52871">
        <ele>88.58</ele>
        <time>2022-04-03T07:31:05Z</time>
      </trkpt>
      <trkpt lat="49.54093" lon="-1.52859">
        <ele>88.58</ele>
        <time>2022-04-03T07:31:19Z</time>
      </trkpt>
      <trkpt lat="49.5411" lon="-1.52835">
        <ele>88.58</ele>
        <time>2022-04-03T07:31:35Z</time>
      </trkpt>
      <trkpt lat="49.5413" lon="-1.52823">
        <ele>88.58</ele>
        <time>2022-04-03T07:31:49Z</time>
      </trkpt>
      <trkpt lat="49.54153" lon="-1.52807">
        <ele>88.58</ele>
        <time>2022-04-03T07:32:04Z</time>
      </trkpt>
      <trkpt lat="49.54179" lon="-1.52808">
        <ele>88.58</ele>
        <time>2022-04-03T07:32:22Z</time>
      </trkpt>
      <trkpt lat="49.54205" lon="-1.5281">
        <ele>88.58</ele>
        <time>2022-04-03T07:32:39Z</time>
      </trkpt>
      <trkpt lat="49.54229" lon="-1.52817">
        <ele>88.1</ele>
        <time>2022-04-03T07:32:56Z</time>
      </trkpt>
      <trkpt lat="49.5423" lon="-1.52817">
        <ele>88.1</ele>
        <time>2022-04-03T07:32:57Z</time>
      </trkpt>
      <trkpt lat="49.54251" lon="-1.52789">
        <ele>89.54</ele>
        <time>2022-04-03T07:33:13Z</time>
      </trkpt>
      <trkpt lat="49.5427" lon="-1.52757">
        <ele>90.5</ele>
        <time>2022-04-03T07:33:30Z</time>
      </trkpt>
      <trkpt lat="49.54284" lon="-1.52733">
        <ele>91.46</ele>
        <time>2022-04-03T07:33:44Z</time>
      </trkpt>
      <trkpt lat="49.54294" lon="-1.52717">
        <ele>91.94</ele>
        <time>2022-04-03T07:33:53Z</time>
      </trkpt>
      <trkpt lat="49.5431" lon="-1.52687">
        <ele>93.87</ele>
        <time>2022-04-03T07:34:09Z</time>
      </trkpt>
      <trkpt lat="49.54324" lon="-1.52662">
        <ele>94.83</ele>
        <time>2022-04-03T07:34:23Z</time>
      </trkpt>
      <trkpt lat="49.54334" lon="-1.52651">
        <ele>95.79</ele>
        <time>2022-04-03T07:34:32Z</time>
      </trkpt>
      <trkpt lat="49.54351" lon="-1.52667">
        <ele>96.27</ele>
        <time>2022-04-03T07:34:46Z</time>
      </trkpt>
      <trkpt lat="49.54356" lon="-1.52685">
        <ele>95.31</ele>
        <time>2022-04-03T07:34:54Z</time>
      </trkpt>
      <trkpt lat="49.54363" lon="-1.52705">
        <ele>93.87</ele>
        <time>2022-04-03T07:35:03Z</time>
      </trkpt>
      <trkpt lat="49.54366" lon="-1.5271">
        <ele>92.9</ele>
        <time>2022-04-03T07:35:06Z</time>
      </trkpt>
      <trkpt lat="49.5438" lon="-1.52741">
        <ele>90.02</ele>
        <time>2022-04-03T07:35:22Z</time>
      </trkpt>
      <trkpt lat="49.54394" lon="-1.52777">
        <ele>87.14</ele>
        <time>2022-04-03T07:35:38Z</time>
      </trkpt>
      <trkpt lat="49.54407" lon="-1.52802">
        <ele>85.21</ele>
        <time>2022-04-03T07:35:52Z</time>
      </trkpt>
      <trkpt lat="49.54418" lon="-1.52837">
        <ele>82.81</ele>
        <time>2022-04-03T07:36:06Z</time>
      </trkpt>
      <trkpt lat="49.54432" lon="-1.5287">
        <ele>80.41</ele>
        <time>2022-04-03T07:36:20Z</time>
      </trkpt>
      <trkpt lat="49.54446" lon="-1.52901">
        <ele>78.48</ele>
        <time>2022-04-03T07:36:35Z</time>
      </trkpt>
      <trkpt lat="49.54451" lon="-1.5291">
        <ele>78</ele>
        <time>2022-04-03T07:36:41Z</time>
      </trkpt>
      <trkpt lat="49.54464" lon="-1.52937">
        <ele>77.04</ele>
        <time>2022-04-03T07:36:54Z</time>
      </trkpt>
      <trkpt lat="49.5447" lon="-1.52951">
        <ele>76.56</ele>
        <time>2022-04-03T07:37:00Z</time>
      </trkpt>
      <trkpt lat="49.54475" lon="-1.52963">
        <ele>76.08</ele>
        <time>2022-04-03T07:37:06Z</time>
      </trkpt>
      <trkpt lat="49.54482" lon="-1.52979">
        <ele>75.6</ele>
        <time>2022-04-03T07:37:14Z</time>
      </trkpt>
      <trkpt lat="49.54485" lon="-1.52985">
        <ele>75.12</ele>
        <time>2022-04-03T07:37:17Z</time>
      </trkpt>
      <trkpt lat="49.54491" lon="-1.52987">
        <ele>75.12</ele>
        <time>2022-04-03T07:37:32Z</time>
      </trkpt>
      <trkpt lat="49.54499" lon="-1.52986">
        <ele>76.08</ele>
        <time>2022-04-03T07:37:35Z</time>
      </trkpt>
      <trkpt lat="49.54527" lon="-1.52975">
        <ele>76.56</ele>
        <time>2022-04-03T07:37:49Z</time>
      </trkpt>
      <trkpt lat="49.54553" lon="-1.52962">
        <ele>76.56</ele>
        <time>2022-04-03T07:38:06Z</time>
      </trkpt>
      <trkpt lat="49.54573" lon="-1.52953">
        <ele>76.56</ele>
        <time>2022-04-03T07:38:19Z</time>
      </trkpt>
      <trkpt lat="49.54582" lon="-1.52949">
        <ele>75.12</ele>
        <time>2022-04-03T07:38:24Z</time>
      </trkpt>
      <trkpt lat="49.546" lon="-1.52943">
        <ele>74.64</ele>
        <time>2022-04-03T07:38:34Z</time>
      </trkpt>
      <trkpt lat="49.54626" lon="-1.52933">
        <ele>74.16</ele>
        <time>2022-04-03T07:38:49Z</time>
      </trkpt>
      <trkpt lat="49.54647" lon="-1.5292">
        <ele>74.16</ele>
        <time>2022-04-03T07:39:03Z</time>
      </trkpt>
      <trkpt lat="49.5467" lon="-1.5291">
        <ele>74.16</ele>
        <time>2022-04-03T07:39:19Z</time>
      </trkpt>
      <trkpt lat="49.5468" lon="-1.52905">
        <ele>74.16</ele>
        <time>2022-04-03T07:39:25Z</time>
      </trkpt>
      <trkpt lat="49.54691" lon="-1.52899">
        <ele>75.6</ele>
        <time>2022-04-03T07:39:31Z</time>
      </trkpt>
      <trkpt lat="49.5471" lon="-1.52889">
        <ele>76.56</ele>
        <time>2022-04-03T07:39:43Z</time>
      </trkpt>
      <trkpt lat="49.54718" lon="-1.52885">
        <ele>76.56</ele>
        <time>2022-04-03T07:39:47Z</time>
      </trkpt>
      <trkpt lat="49.54741" lon="-1.52876">
        <ele>78</ele>
        <time>2022-04-03T07:40:02Z</time>
      </trkpt>
      <trkpt lat="49.5476" lon="-1.52865">
        <ele>79.45</ele>
        <time>2022-04-03T07:40:16Z</time>
      </trkpt>
      <trkpt lat="49.5478" lon="-1.52858">
        <ele>80.41</ele>
        <time>2022-04-03T07:40:28Z</time>
      </trkpt>
      <trkpt lat="49.54792" lon="-1.52851">
        <ele>81.37</ele>
        <time>2022-04-03T07:40:37Z</time>
      </trkpt>
      <trkpt lat="49.54794" lon="-1.52818">
        <ele>81.37</ele>
        <time>2022-04-03T07:40:52Z</time>
      </trkpt>
      <trkpt lat="49.54791" lon="-1.52773">
        <ele>81.37</ele>
        <time>2022-04-03T07:41:08Z</time>
      </trkpt>
      <trkpt lat="49.54783" lon="-1.52753">
        <ele>80.41</ele>
        <time>2022-04-03T07:41:18Z</time>
      </trkpt>
      <trkpt lat="49.54783" lon="-1.52751">
        <ele>80.41</ele>
        <time>2022-04-03T07:41:19Z</time>
      </trkpt>
      <trkpt lat="49.5477" lon="-1.52709">
        <ele>78.97</ele>
        <time>2022-04-03T07:41:36Z</time>
      </trkpt>
      <trkpt lat="49.54759" lon="-1.52683">
        <ele>78.48</ele>
        <time>2022-04-03T07:41:47Z</time>
      </trkpt>
      <trkpt lat="49.5476" lon="-1.5267">
        <ele>78.48</ele>
        <time>2022-04-03T07:41:53Z</time>
      </trkpt>
      <trkpt lat="49.54768" lon="-1.52651">
        <ele>78.48</ele>
        <time>2022-04-03T07:42:01Z</time>
      </trkpt>
      <trkpt lat="49.54792" lon="-1.52601">
        <ele>79.93</ele>
        <time>2022-04-03T07:42:24Z</time>
      </trkpt>
      <trkpt lat="49.54808" lon="-1.52572">
        <ele>80.89</ele>
        <time>2022-04-03T07:42:39Z</time>
      </trkpt>
      <trkpt lat="49.54831" lon="-1.52537">
        <ele>82.33</ele>
        <time>2022-04-03T07:43:00Z</time>
      </trkpt>
      <trkpt lat="49.54848" lon="-1.52501">
        <ele>82.81</ele>
        <time>2022-04-03T07:43:19Z</time>
      </trkpt>
      <trkpt lat="49.54849" lon="-1.52499">
        <ele>82.81</ele>
        <time>2022-04-03T07:43:20Z</time>
      </trkpt>
      <trkpt lat="49.5486" lon="-1.52471">
        <ele>83.77</ele>
        <time>2022-04-03T07:43:34Z</time>
      </trkpt>
      <trkpt lat="49.54867" lon="-1.52452">
        <ele>84.25</ele>
        <time>2022-04-03T07:43:44Z</time>
      </trkpt>
      <trkpt lat="49.54869" lon="-1.52426">
        <ele>86.18</ele>
        <time>2022-04-03T07:43:58Z</time>
      </trkpt>
      <trkpt lat="49.54851" lon="-1.52395">
        <ele>87.14</ele>
        <time>2022-04-03T07:44:13Z</time>
      </trkpt>
      <trkpt lat="49.54836" lon="-1.5237">
        <ele>88.58</ele>
        <time>2022-04-03T07:44:28Z</time>
      </trkpt>
      <trkpt lat="49.5482" lon="-1.52337">
        <ele>89.54</ele>
        <time>2022-04-03T07:44:43Z</time>
      </trkpt>
      <trkpt lat="49.54803" lon="-1.52307">
        <ele>91.94</ele>
        <time>2022-04-03T07:45:00Z</time>
      </trkpt>
      <trkpt lat="49.54791" lon="-1.52286">
        <ele>93.39</ele>
        <time>2022-04-03T07:45:12Z</time>
      </trkpt>
      <trkpt lat="49.54777" lon="-1.52263">
        <ele>94.83</ele>
        <time>2022-04-03T07:45:26Z</time>
      </trkpt>
      <trkpt lat="49.54765" lon="-1.52236">
        <ele>96.27</ele>
        <time>2022-04-03T07:45:39Z</time>
      </trkpt>
      <trkpt lat="49.54752" lon="-1.52211">
        <ele>97.23</ele>
        <time>2022-04-03T07:45:52Z</time>
      </trkpt>
      <trkpt lat="49.5475" lon="-1.52207">
        <ele>97.71</ele>
        <time>2022-04-03T07:45:54Z</time>
      </trkpt>
      <trkpt lat="49.54737" lon="-1.52186">
        <ele>99.63</ele>
        <time>2022-04-03T07:46:07Z</time>
      </trkpt>
      <trkpt lat="49.54724" lon="-1.52157">
        <ele>101.08</ele>
        <time>2022-04-03T07:46:21Z</time>
      </trkpt>
      <trkpt lat="49.54706" lon="-1.52121">
        <ele>103</ele>
        <time>2022-04-03T07:46:37Z</time>
      </trkpt>
      <trkpt lat="49.54693" lon="-1.52083">
        <ele>105.4</ele>
        <time>2022-04-03T07:46:54Z</time>
      </trkpt>
      <trkpt lat="49.54682" lon="-1.52051">
        <ele>107.32</ele>
        <time>2022-04-03T07:47:09Z</time>
      </trkpt>
      <trkpt lat="49.54675" lon="-1.52039">
        <ele>108.77</ele>
        <time>2022-04-03T07:47:17Z</time>
      </trkpt>
      <trkpt lat="49.54675" lon="-1.52027">
        <ele>109.25</ele>
        <time>2022-04-03T07:47:24Z</time>
      </trkpt>
      <trkpt lat="49.54685" lon="-1.51988">
        <ele>110.21</ele>
        <time>2022-04-03T07:47:41Z</time>
      </trkpt>
      <trkpt lat="49.54692" lon="-1.51969">
        <ele>110.69</ele>
        <time>2022-04-03T07:47:54Z</time>
      </trkpt>
      <trkpt lat="49.54699" lon="-1.51937">
        <ele>110.69</ele>
        <time>2022-04-03T07:48:07Z</time>
      </trkpt>
      <trkpt lat="49.54707" lon="-1.51903">
        <ele>110.69</ele>
        <time>2022-04-03T07:48:19Z</time>
      </trkpt>
      <trkpt lat="49.54716" lon="-1.51855">
        <ele>109.25</ele>
        <time>2022-04-03T07:48:36Z</time>
      </trkpt>
      <trkpt lat="49.54721" lon="-1.5183">
        <ele>109.25</ele>
        <time>2022-04-03T07:48:48Z</time>
      </trkpt>
      <trkpt lat="49.54722" lon="-1.51824">
        <ele>109.25</ele>
        <time>2022-04-03T07:48:50Z</time>
      </trkpt>
      <trkpt lat="49.54731" lon="-1.51784">
        <ele>108.29</ele>
        <time>2022-04-03T07:49:06Z</time>
      </trkpt>
      <trkpt lat="49.54734" lon="-1.51768">
        <ele>108.29</ele>
        <time>2022-04-03T07:49:13Z</time>
      </trkpt>
      <trkpt lat="49.54741" lon="-1.51736">
        <ele>108.29</ele>
        <time>2022-04-03T07:49:27Z</time>
      </trkpt>
      <trkpt lat="49.54743" lon="-1.5173">
        <ele>107.81</ele>
        <time>2022-04-03T07:49:30Z</time>
      </trkpt>
      <trkpt lat="49.54755" lon="-1.51683">
        <ele>107.32</ele>
        <time>2022-04-03T07:49:45Z</time>
      </trkpt>
      <trkpt lat="49.54759" lon="-1.51669">
        <ele>107.32</ele>
        <time>2022-04-03T07:49:51Z</time>
      </trkpt>
      <trkpt lat="49.5476" lon="-1.51647">
        <ele>107.32</ele>
        <time>2022-04-03T07:50:00Z</time>
      </trkpt>
      <trkpt lat="49.5477" lon="-1.51618">
        <ele>107.32</ele>
        <time>2022-04-03T07:50:14Z</time>
      </trkpt>
      <trkpt lat="49.54777" lon="-1.51587">
        <ele>107.81</ele>
        <time>2022-04-03T07:50:26Z</time>
      </trkpt>
      <trkpt lat="49.54781" lon="-1.51566">
        <ele>107.81</ele>
        <time>2022-04-03T07:50:38Z</time>
      </trkpt>
      <trkpt lat="49.54781" lon="-1.51563">
        <ele>107.81</ele>
        <time>2022-04-03T07:50:40Z</time>
      </trkpt>
      <trkpt lat="49.54783" lon="-1.51555">
        <ele>107.81</ele>
        <time>2022-04-03T07:50:43Z</time>
      </trkpt>
      <trkpt lat="49.5479" lon="-1.51526">
        <ele>108.77</ele>
        <time>2022-04-03T07:50:55Z</time>
      </trkpt>
      <trkpt lat="49.548" lon="-1.51498">
        <ele>108.77</ele>
        <time>2022-04-03T07:51:09Z</time>
      </trkpt>
      <trkpt lat="49.5481" lon="-1.51469">
        <ele>108.77</ele>
        <time>2022-04-03T07:51:24Z</time>
      </trkpt>
      <trkpt lat="49.54815" lon="-1.51434">
        <ele>108.77</ele>
        <time>2022-04-03T07:51:37Z</time>
      </trkpt>
      <trkpt lat="49.54822" lon="-1.51399">
        <ele>108.77</ele>
        <time>2022-04-03T07:51:51Z</time>
      </trkpt>
      <trkpt lat="49.54828" lon="-1.51369">
        <ele>108.77</ele>
        <time>2022-04-03T07:52:03Z</time>
      </trkpt>
      <trkpt lat="49.54837" lon="-1.51345">
        <ele>108.77</ele>
        <time>2022-04-03T07:52:16Z</time>
      </trkpt>
      <trkpt lat="49.54843" lon="-1.51316">
        <ele>108.77</ele>
        <time>2022-04-03T07:52:28Z</time>
      </trkpt>
      <trkpt lat="49.5485" lon="-1.51281">
        <ele>107.32</ele>
        <time>2022-04-03T07:52:41Z</time>
      </trkpt>
      <trkpt lat="49.54858" lon="-1.51236">
        <ele>107.32</ele>
        <time>2022-04-03T07:52:55Z</time>
      </trkpt>
      <trkpt lat="49.54867" lon="-1.51207">
        <ele>107.32</ele>
        <time>2022-04-03T07:53:06Z</time>
      </trkpt>
      <trkpt lat="49.54869" lon="-1.51202">
        <ele>107.32</ele>
        <time>2022-04-03T07:53:08Z</time>
      </trkpt>
      <trkpt lat="49.54882" lon="-1.51171">
        <ele>107.32</ele>
        <time>2022-04-03T07:53:22Z</time>
      </trkpt>
      <trkpt lat="49.54885" lon="-1.51158">
        <ele>107.32</ele>
        <time>2022-04-03T07:53:27Z</time>
      </trkpt>
      <trkpt lat="49.5489" lon="-1.51149">
        <ele>107.32</ele>
        <time>2022-04-03T07:53:32Z</time>
      </trkpt>
      <trkpt lat="49.549" lon="-1.51119">
        <ele>106.84</ele>
        <time>2022-04-03T07:53:47Z</time>
      </trkpt>
      <trkpt lat="49.54914" lon="-1.51088">
        <ele>108.29</ele>
        <time>2022-04-03T07:54:01Z</time>
      </trkpt>
      <trkpt lat="49.5493" lon="-1.5108">
        <ele>108.29</ele>
        <time>2022-04-03T07:54:14Z</time>
      </trkpt>
      <trkpt lat="49.54933" lon="-1.51076">
        <ele>108.29</ele>
        <time>2022-04-03T07:54:17Z</time>
      </trkpt>
      <trkpt lat="49.54936" lon="-1.51058">
        <ele>108.29</ele>
        <time>2022-04-03T07:54:21Z</time>
      </trkpt>
      <trkpt lat="49.54944" lon="-1.51022">
        <ele>108.29</ele>
        <time>2022-04-03T07:54:31Z</time>
      </trkpt>
      <trkpt lat="49.54953" lon="-1.51003">
        <ele>108.29</ele>
        <time>2022-04-03T07:54:40Z</time>
      </trkpt>
      <trkpt lat="49.54956" lon="-1.50999">
        <ele>108.29</ele>
        <time>2022-04-03T07:54:43Z</time>
      </trkpt>
      <trkpt lat="49.54968" lon="-1.50974">
        <ele>108.29</ele>
        <time>2022-04-03T07:54:55Z</time>
      </trkpt>
      <trkpt lat="49.5497" lon="-1.50969">
        <ele>108.29</ele>
        <time>2022-04-03T07:54:57Z</time>
      </trkpt>
      <trkpt lat="49.54975" lon="-1.50965">
        <ele>106.84</ele>
        <time>2022-04-03T07:55:01Z</time>
      </trkpt>
      <trkpt lat="49.54989" lon="-1.50948">
        <ele>106.84</ele>
        <time>2022-04-03T07:55:14Z</time>
      </trkpt>
      <trkpt lat="49.54999" lon="-1.50917">
        <ele>106.36</ele>
        <time>2022-04-03T07:55:28Z</time>
      </trkpt>
      <trkpt lat="49.55012" lon="-1.50892">
        <ele>106.36</ele>
        <time>2022-04-03T07:55:42Z</time>
      </trkpt>
      <trkpt lat="49.55023" lon="-1.50868">
        <ele>105.88</ele>
        <time>2022-04-03T07:55:56Z</time>
      </trkpt>
      <trkpt lat="49.55033" lon="-1.50847">
        <ele>105.4</ele>
        <time>2022-04-03T07:56:08Z</time>
      </trkpt>
      <trkpt lat="49.55037" lon="-1.50822">
        <ele>104.92</ele>
        <time>2022-04-03T07:56:16Z</time>
      </trkpt>
      <trkpt lat="49.5504" lon="-1.50809">
        <ele>104.44</ele>
        <time>2022-04-03T07:56:20Z</time>
      </trkpt>
      <trkpt lat="49.55053" lon="-1.50782">
        <ele>103.48</ele>
        <time>2022-04-03T07:56:32Z</time>
      </trkpt>
      <trkpt lat="49.55067" lon="-1.50761">
        <ele>103</ele>
        <time>2022-04-03T07:56:44Z</time>
      </trkpt>
      <trkpt lat="49.55069" lon="-1.50759">
        <ele>103</ele>
        <time>2022-04-03T07:56:46Z</time>
      </trkpt>
      <trkpt lat="49.5508" lon="-1.50723">
        <ele>102.04</ele>
        <time>2022-04-03T07:56:58Z</time>
      </trkpt>
      <trkpt lat="49.55094" lon="-1.50697">
        <ele>101.08</ele>
        <time>2022-04-03T07:57:10Z</time>
      </trkpt>
      <trkpt lat="49.55105" lon="-1.50673">
        <ele>100.6</ele>
        <time>2022-04-03T07:57:20Z</time>
      </trkpt>
      <trkpt lat="49.55118" lon="-1.50658">
        <ele>99.15</ele>
        <time>2022-04-03T07:57:35Z</time>
      </trkpt>
      <trkpt lat="49.55125" lon="-1.50622">
        <ele>97.23</ele>
        <time>2022-04-03T07:57:49Z</time>
      </trkpt>
      <trkpt lat="49.5513" lon="-1.50619">
        <ele>96.27</ele>
        <time>2022-04-03T07:57:53Z</time>
      </trkpt>
      <trkpt lat="49.55131" lon="-1.50613">
        <ele>95.31</ele>
        <time>2022-04-03T07:57:55Z</time>
      </trkpt>
      <trkpt lat="49.55146" lon="-1.50607">
        <ele>91.94</ele>
        <time>2022-04-03T07:58:07Z</time>
      </trkpt>
      <trkpt lat="49.5517" lon="-1.50628">
        <ele>89.06</ele>
        <time>2022-04-03T07:58:21Z</time>
      </trkpt>
      <trkpt lat="49.55189" lon="-1.50649">
        <ele>86.66</ele>
        <time>2022-04-03T07:58:34Z</time>
      </trkpt>
      <trkpt lat="49.55198" lon="-1.50658">
        <ele>84.73</ele>
        <time>2022-04-03T07:58:43Z</time>
      </trkpt>
      <trkpt lat="49.55216" lon="-1.50669">
        <ele>82.33</ele>
        <time>2022-04-03T07:58:57Z</time>
      </trkpt>
      <trkpt lat="49.55237" lon="-1.50699">
        <ele>80.89</ele>
        <time>2022-04-03T07:59:11Z</time>
      </trkpt>
      <trkpt lat="49.55259" lon="-1.50724">
        <ele>79.45</ele>
        <time>2022-04-03T07:59:28Z</time>
      </trkpt>
      <trkpt lat="49.55283" lon="-1.50746">
        <ele>78.97</ele>
        <time>2022-04-03T07:59:40Z</time>
      </trkpt>
      <trkpt lat="49.553" lon="-1.50761">
        <ele>78</ele>
        <time>2022-04-03T07:59:50Z</time>
      </trkpt>
      <trkpt lat="49.55319" lon="-1.50768">
        <ele>77.04</ele>
        <time>2022-04-03T08:00:02Z</time>
      </trkpt>
      <trkpt lat="49.55341" lon="-1.50755">
        <ele>74.16</ele>
        <time>2022-04-03T08:00:17Z</time>
      </trkpt>
      <trkpt lat="49.55354" lon="-1.50747">
        <ele>72.24</ele>
        <time>2022-04-03T08:00:29Z</time>
      </trkpt>
      <trkpt lat="49.55376" lon="-1.50737">
        <ele>70.31</ele>
        <time>2022-04-03T08:00:39Z</time>
      </trkpt>
      <trkpt lat="49.5538" lon="-1.50734">
        <ele>70.31</ele>
        <time>2022-04-03T08:00:41Z</time>
      </trkpt>
      <trkpt lat="49.5539" lon="-1.50715">
        <ele>68.39</ele>
        <time>2022-04-03T08:00:53Z</time>
      </trkpt>
      <trkpt lat="49.55391" lon="-1.50713">
        <ele>67.91</ele>
        <time>2022-04-03T08:00:56Z</time>
      </trkpt>
      <trkpt lat="49.55396" lon="-1.50673">
        <ele>66.95</ele>
        <time>2022-04-03T08:01:12Z</time>
      </trkpt>
      <trkpt lat="49.55407" lon="-1.50659">
        <ele>66.95</ele>
        <time>2022-04-03T08:01:24Z</time>
      </trkpt>
      <trkpt lat="49.55426" lon="-1.50652">
        <ele>66.47</ele>
        <time>2022-04-03T08:01:35Z</time>
      </trkpt>
      <trkpt lat="49.5544" lon="-1.50641">
        <ele>65.03</ele>
        <time>2022-04-03T08:01:44Z</time>
      </trkpt>
      <trkpt lat="49.55454" lon="-1.50641">
        <ele>63.1</ele>
        <time>2022-04-03T08:01:56Z</time>
      </trkpt>
      <trkpt lat="49.55459" lon="-1.50644">
        <ele>63.1</ele>
        <time>2022-04-03T08:02:00Z</time>
      </trkpt>
      <trkpt lat="49.55462" lon="-1.50643">
        <ele>63.1</ele>
        <time>2022-04-03T08:02:02Z</time>
      </trkpt>
      <trkpt lat="49.55477" lon="-1.50641">
        <ele>63.58</ele>
        <time>2022-04-03T08:02:12Z</time>
      </trkpt>
      <trkpt lat="49.55492" lon="-1.50634">
        <ele>64.55</ele>
        <time>2022-04-03T08:02:20Z</time>
      </trkpt>
      <trkpt lat="49.55499" lon="-1.50626">
        <ele>64.55</ele>
        <time>2022-04-03T08:02:25Z</time>
      </trkpt>
      <trkpt lat="49.55512" lon="-1.50605">
        <ele>66.47</ele>
        <time>2022-04-03T08:02:38Z</time>
      </trkpt>
      <trkpt lat="49.55523" lon="-1.50594">
        <ele>67.91</ele>
        <time>2022-04-03T08:02:51Z</time>
      </trkpt>
      <trkpt lat="49.55541" lon="-1.50576">
        <ele>69.35</ele>
        <time>2022-04-03T08:03:06Z</time>
      </trkpt>
      <trkpt lat="49.55554" lon="-1.50562">
        <ele>71.76</ele>
        <time>2022-04-03T08:03:21Z</time>
      </trkpt>
      <trkpt lat="49.55559" lon="-1.50555">
        <ele>73.2</ele>
        <time>2022-04-03T08:03:28Z</time>
      </trkpt>
      <trkpt lat="49.55568" lon="-1.5054">
        <ele>74.16</ele>
        <time>2022-04-03T08:03:40Z</time>
      </trkpt>
      <trkpt lat="49.55589" lon="-1.50544">
        <ele>76.08</ele>
        <time>2022-04-03T08:03:48Z</time>
      </trkpt>
      <trkpt lat="49.55596" lon="-1.50544">
        <ele>76.08</ele>
        <time>2022-04-03T08:03:51Z</time>
      </trkpt>
      <trkpt lat="49.55601" lon="-1.50548">
        <ele>77.04</ele>
        <time>2022-04-03T08:03:55Z</time>
      </trkpt>
      <trkpt lat="49.55621" lon="-1.50558">
        <ele>78.97</ele>
        <time>2022-04-03T08:04:09Z</time>
      </trkpt>
      <trkpt lat="49.55649" lon="-1.50574">
        <ele>80.41</ele>
        <time>2022-04-03T08:04:27Z</time>
      </trkpt>
      <trkpt lat="49.55679" lon="-1.50585">
        <ele>81.85</ele>
        <time>2022-04-03T08:04:46Z</time>
      </trkpt>
      <trkpt lat="49.55711" lon="-1.50596">
        <ele>81.85</ele>
        <time>2022-04-03T08:05:06Z</time>
      </trkpt>
      <trkpt lat="49.55741" lon="-1.5061">
        <ele>80.41</ele>
        <time>2022-04-03T08:05:24Z</time>
      </trkpt>
      <trkpt lat="49.55769" lon="-1.50617">
        <ele>78.48</ele>
        <time>2022-04-03T08:05:41Z</time>
      </trkpt>
      <trkpt lat="49.55789" lon="-1.50629">
        <ele>77.52</ele>
        <time>2022-04-03T08:05:55Z</time>
      </trkpt>
      <trkpt lat="49.55812" lon="-1.50639">
        <ele>77.52</ele>
        <time>2022-04-03T08:06:08Z</time>
      </trkpt>
      <trkpt lat="49.55831" lon="-1.50647">
        <ele>75.6</ele>
        <time>2022-04-03T08:06:21Z</time>
      </trkpt>
      <trkpt lat="49.55856" lon="-1.5066">
        <ele>75.6</ele>
        <time>2022-04-03T08:06:35Z</time>
      </trkpt>
      <trkpt lat="49.55881" lon="-1.50669">
        <ele>74.64</ele>
        <time>2022-04-03T08:06:51Z</time>
      </trkpt>
      <trkpt lat="49.55902" lon="-1.50678">
        <ele>74.16</ele>
        <time>2022-04-03T08:07:02Z</time>
      </trkpt>
      <trkpt lat="49.55924" lon="-1.50686">
        <ele>73.68</ele>
        <time>2022-04-03T08:07:16Z</time>
      </trkpt>
      <trkpt lat="49.55933" lon="-1.50688">
        <ele>73.68</ele>
        <time>2022-04-03T08:07:29Z</time>
      </trkpt>
      <trkpt lat="49.55939" lon="-1.50692">
        <ele>73.68</ele>
        <time>2022-04-03T08:07:34Z</time>
      </trkpt>
      <trkpt lat="49.55947" lon="-1.50694">
        <ele>73.68</ele>
        <time>2022-04-03T08:07:39Z</time>
      </trkpt>
      <trkpt lat="49.55978" lon="-1.50705">
        <ele>76.56</ele>
        <time>2022-04-03T08:07:59Z</time>
      </trkpt>
      <trkpt lat="49.56006" lon="-1.50717">
        <ele>77.04</ele>
        <time>2022-04-03T08:08:17Z</time>
      </trkpt>
      <trkpt lat="49.56037" lon="-1.50727">
        <ele>77.52</ele>
        <time>2022-04-03T08:08:37Z</time>
      </trkpt>
      <trkpt lat="49.56046" lon="-1.5073">
        <ele>78.48</ele>
        <time>2022-04-03T08:08:42Z</time>
      </trkpt>
      <trkpt lat="49.5607" lon="-1.5074">
        <ele>77.04</ele>
        <time>2022-04-03T08:08:57Z</time>
      </trkpt>
      <trkpt lat="49.5609" lon="-1.50747">
        <ele>76.08</ele>
        <time>2022-04-03T08:09:10Z</time>
      </trkpt>
      <trkpt lat="49.56113" lon="-1.50757">
        <ele>74.64</ele>
        <time>2022-04-03T08:09:25Z</time>
      </trkpt>
      <trkpt lat="49.56123" lon="-1.50757">
        <ele>74.64</ele>
        <time>2022-04-03T08:09:31Z</time>
      </trkpt>
      <trkpt lat="49.56151" lon="-1.50771">
        <ele>74.16</ele>
        <time>2022-04-03T08:09:49Z</time>
      </trkpt>
      <trkpt lat="49.56177" lon="-1.50784">
        <ele>73.68</ele>
        <time>2022-04-03T08:10:07Z</time>
      </trkpt>
      <trkpt lat="49.56199" lon="-1.50794">
        <ele>73.68</ele>
        <time>2022-04-03T08:10:22Z</time>
      </trkpt>
      <trkpt lat="49.56206" lon="-1.50801">
        <ele>75.12</ele>
        <time>2022-04-03T08:10:28Z</time>
      </trkpt>
      <trkpt lat="49.56213" lon="-1.50807">
        <ele>75.12</ele>
        <time>2022-04-03T08:10:34Z</time>
      </trkpt>
      <trkpt lat="49.56223" lon="-1.50817">
        <ele>75.6</ele>
        <time>2022-04-03T08:10:42Z</time>
      </trkpt>
      <trkpt lat="49.56247" lon="-1.50834">
        <ele>76.08</ele>
        <time>2022-04-03T08:10:58Z</time>
      </trkpt>
      <trkpt lat="49.56249" lon="-1.50835">
        <ele>76.08</ele>
        <time>2022-04-03T08:11:00Z</time>
      </trkpt>
      <trkpt lat="49.56266" lon="-1.50846">
        <ele>76.56</ele>
        <time>2022-04-03T08:11:10Z</time>
      </trkpt>
      <trkpt lat="49.56283" lon="-1.50864">
        <ele>76.56</ele>
        <time>2022-04-03T08:11:23Z</time>
      </trkpt>
      <trkpt lat="49.563" lon="-1.50887">
        <ele>77.04</ele>
        <time>2022-04-03T08:11:36Z</time>
      </trkpt>
      <trkpt lat="49.56323" lon="-1.5091">
        <ele>77.52</ele>
        <time>2022-04-03T08:11:53Z</time>
      </trkpt>
      <trkpt lat="49.56331" lon="-1.50915">
        <ele>78</ele>
        <time>2022-04-03T08:12:00Z</time>
      </trkpt>
      <trkpt lat="49.56352" lon="-1.50937">
        <ele>78.97</ele>
        <time>2022-04-03T08:12:17Z</time>
      </trkpt>
      <trkpt lat="49.56369" lon="-1.50957">
        <ele>80.41</ele>
        <time>2022-04-03T08:12:31Z</time>
      </trkpt>
      <trkpt lat="49.56372" lon="-1.50957">
        <ele>80.41</ele>
        <time>2022-04-03T08:12:33Z</time>
      </trkpt>
      <trkpt lat="49.56379" lon="-1.50965">
        <ele>80.89</ele>
        <time>2022-04-03T08:12:39Z</time>
      </trkpt>
      <trkpt lat="49.564" lon="-1.50997">
        <ele>81.37</ele>
        <time>2022-04-03T08:12:56Z</time>
      </trkpt>
      <trkpt lat="49.56418" lon="-1.51023">
        <ele>81.85</ele>
        <time>2022-04-03T08:13:12Z</time>
      </trkpt>
      <trkpt lat="49.56434" lon="-1.5104">
        <ele>81.85</ele>
        <time>2022-04-03T08:13:25Z</time>
      </trkpt>
      <trkpt lat="49.56454" lon="-1.51064">
        <ele>82.81</ele>
        <time>2022-04-03T08:13:40Z</time>
      </trkpt>
      <trkpt lat="49.56473" lon="-1.51085">
        <ele>83.29</ele>
        <time>2022-04-03T08:13:55Z</time>
      </trkpt>
      <trkpt lat="49.56493" lon="-1.51108">
        <ele>84.25</ele>
        <time>2022-04-03T08:14:15Z</time>
      </trkpt>
      <trkpt lat="49.56505" lon="-1.51121">
        <ele>85.21</ele>
        <time>2022-04-03T08:14:27Z</time>
      </trkpt>
      <trkpt lat="49.56527" lon="-1.51146">
        <ele>86.66</ele>
        <time>2022-04-03T08:14:44Z</time>
      </trkpt>
      <trkpt lat="49.56548" lon="-1.5117">
        <ele>87.14</ele>
        <time>2022-04-03T08:15:01Z</time>
      </trkpt>
      <trkpt lat="49.56567" lon="-1.51191">
        <ele>87.62</ele>
        <time>2022-04-03T08:15:16Z</time>
      </trkpt>
      <trkpt lat="49.56592" lon="-1.51192">
        <ele>89.06</ele>
        <time>2022-04-03T08:15:33Z</time>
      </trkpt>
      <trkpt lat="49.56613" lon="-1.5119">
        <ele>89.54</ele>
        <time>2022-04-03T08:15:46Z</time>
      </trkpt>
      <trkpt lat="49.56626" lon="-1.51154">
        <ele>90.98</ele>
        <time>2022-04-03T08:16:03Z</time>
      </trkpt>
      <trkpt lat="49.56636" lon="-1.51121">
        <ele>92.9</ele>
        <time>2022-04-03T08:16:18Z</time>
      </trkpt>
      <trkpt lat="49.56638" lon="-1.51106">
        <ele>93.39</ele>
        <time>2022-04-03T08:16:25Z</time>
      </trkpt>
      <trkpt lat="49.5664" lon="-1.511">
        <ele>93.39</ele>
        <time>2022-04-03T08:16:28Z</time>
      </trkpt>
      <trkpt lat="49.56647" lon="-1.51075">
        <ele>94.35</ele>
        <time>2022-04-03T08:16:41Z</time>
      </trkpt>
      <trkpt lat="49.56649" lon="-1.51068">
        <ele>94.83</ele>
        <time>2022-04-03T08:16:44Z</time>
      </trkpt>
      <trkpt lat="49.56657" lon="-1.5103">
        <ele>95.79</ele>
        <time>2022-04-03T08:17:01Z</time>
      </trkpt>
      <trkpt lat="49.56666" lon="-1.51008">
        <ele>96.75</ele>
        <time>2022-04-03T08:17:13Z</time>
      </trkpt>
      <trkpt lat="49.56666" lon="-1.51006">
        <ele>96.75</ele>
        <time>2022-04-03T08:17:14Z</time>
      </trkpt>
      <trkpt lat="49.5667" lon="-1.50978">
        <ele>97.71</ele>
        <time>2022-04-03T08:17:25Z</time>
      </trkpt>
      <trkpt lat="49.56675" lon="-1.50964">
        <ele>98.67</ele>
        <time>2022-04-03T08:17:32Z</time>
      </trkpt>
      <trkpt lat="49.56682" lon="-1.50938">
        <ele>99.63</ele>
        <time>2022-04-03T08:17:43Z</time>
      </trkpt>
      <trkpt lat="49.56687" lon="-1.50914">
        <ele>100.11</ele>
        <time>2022-04-03T08:17:54Z</time>
      </trkpt>
      <trkpt lat="49.56689" lon="-1.50906">
        <ele>100.6</ele>
        <time>2022-04-03T08:17:58Z</time>
      </trkpt>
      <trkpt lat="49.56697" lon="-1.50874">
        <ele>102.04</ele>
        <time>2022-04-03T08:18:11Z</time>
      </trkpt>
      <trkpt lat="49.567" lon="-1.50865">
        <ele>102.04</ele>
        <time>2022-04-03T08:18:16Z</time>
      </trkpt>
      <trkpt lat="49.56713" lon="-1.5083">
        <ele>103</ele>
        <time>2022-04-03T08:18:31Z</time>
      </trkpt>
      <trkpt lat="49.56713" lon="-1.50828">
        <ele>103</ele>
        <time>2022-04-03T08:18:32Z</time>
      </trkpt>
      <trkpt lat="49.56715" lon="-1.50819">
        <ele>103.48</ele>
        <time>2022-04-03T08:18:36Z</time>
      </trkpt>
      <trkpt lat="49.56723" lon="-1.50787">
        <ele>104.44</ele>
        <time>2022-04-03T08:18:50Z</time>
      </trkpt>
      <trkpt lat="49.56725" lon="-1.50776">
        <ele>104.92</ele>
        <time>2022-04-03T08:18:55Z</time>
      </trkpt>
      <trkpt lat="49.56727" lon="-1.50761">
        <ele>105.4</ele>
        <time>2022-04-03T08:19:02Z</time>
      </trkpt>
      <trkpt lat="49.56727" lon="-1.50757">
        <ele>105.4</ele>
        <time>2022-04-03T08:19:04Z</time>
      </trkpt>
      <trkpt lat="49.56732" lon="-1.5074">
        <ele>105.88</ele>
        <time>2022-04-03T08:19:13Z</time>
      </trkpt>
      <trkpt lat="49.56758" lon="-1.50747">
        <ele>107.81</ele>
        <time>2022-04-03T08:19:29Z</time>
      </trkpt>
      <trkpt lat="49.56774" lon="-1.50757">
        <ele>108.29</ele>
        <time>2022-04-03T08:19:41Z</time>
      </trkpt>
      <trkpt lat="49.56795" lon="-1.50775">
        <ele>108.77</ele>
        <time>2022-04-03T08:19:57Z</time>
      </trkpt>
      <trkpt lat="49.56812" lon="-1.50789">
        <ele>108.77</ele>
        <time>2022-04-03T08:20:12Z</time>
      </trkpt>
      <trkpt lat="49.56837" lon="-1.50806">
        <ele>109.25</ele>
        <time>2022-04-03T08:20:26Z</time>
      </trkpt>
      <trkpt lat="49.56866" lon="-1.50827">
        <ele>110.69</ele>
        <time>2022-04-03T08:20:45Z</time>
      </trkpt>
      <trkpt lat="49.56892" lon="-1.50847">
        <ele>111.65</ele>
        <time>2022-04-03T08:21:03Z</time>
      </trkpt>
      <trkpt lat="49.56917" lon="-1.50867">
        <ele>112.61</ele>
        <time>2022-04-03T08:21:21Z</time>
      </trkpt>
      <trkpt lat="49.56948" lon="-1.50893">
        <ele>114.05</ele>
        <time>2022-04-03T08:21:42Z</time>
      </trkpt>
      <trkpt lat="49.56973" lon="-1.50911">
        <ele>114.05</ele>
        <time>2022-04-03T08:21:59Z</time>
      </trkpt>
      <trkpt lat="49.56992" lon="-1.50927">
        <ele>114.05</ele>
        <time>2022-04-03T08:22:14Z</time>
      </trkpt>
      <trkpt lat="49.57004" lon="-1.50936">
        <ele>113.09</ele>
        <time>2022-04-03T08:22:24Z</time>
      </trkpt>
      <trkpt lat="49.57023" lon="-1.50951">
        <ele>111.65</ele>
        <time>2022-04-03T08:22:39Z</time>
      </trkpt>
      <trkpt lat="49.57034" lon="-1.50959">
        <ele>111.17</ele>
        <time>2022-04-03T08:22:45Z</time>
      </trkpt>
      <trkpt lat="49.57036" lon="-1.50975">
        <ele>110.69</ele>
        <time>2022-04-03T08:22:51Z</time>
      </trkpt>
      <trkpt lat="49.57024" lon="-1.51022">
        <ele>108.77</ele>
        <time>2022-04-03T08:23:12Z</time>
      </trkpt>
      <trkpt lat="49.57012" lon="-1.5106">
        <ele>106.84</ele>
        <time>2022-04-03T08:23:29Z</time>
      </trkpt>
      <trkpt lat="49.57006" lon="-1.51074">
        <ele>106.36</ele>
        <time>2022-04-03T08:23:37Z</time>
      </trkpt>
      <trkpt lat="49.5699" lon="-1.5112">
        <ele>103.48</ele>
        <time>2022-04-03T08:23:56Z</time>
      </trkpt>
      <trkpt lat="49.56981" lon="-1.5115">
        <ele>102.04</ele>
        <time>2022-04-03T08:24:10Z</time>
      </trkpt>
      <trkpt lat="49.56974" lon="-1.51159">
        <ele>101.56</ele>
        <time>2022-04-03T08:24:17Z</time>
      </trkpt>
      <trkpt lat="49.56965" lon="-1.51162">
        <ele>101.08</ele>
        <time>2022-04-03T08:24:23Z</time>
      </trkpt>
      <trkpt lat="49.5695" lon="-1.51171">
        <ele>100.6</ele>
        <time>2022-04-03T08:24:34Z</time>
      </trkpt>
      <trkpt lat="49.56934" lon="-1.512">
        <ele>98.67</ele>
        <time>2022-04-03T08:24:51Z</time>
      </trkpt>
      <trkpt lat="49.56925" lon="-1.51221">
        <ele>97.23</ele>
        <time>2022-04-03T08:25:04Z</time>
      </trkpt>
      <trkpt lat="49.56924" lon="-1.51224">
        <ele>97.23</ele>
        <time>2022-04-03T08:25:06Z</time>
      </trkpt>
      <trkpt lat="49.56923" lon="-1.51227">
        <ele>96.27</ele>
        <time>2022-04-03T08:25:08Z</time>
      </trkpt>
      <trkpt lat="49.5691" lon="-1.51253">
        <ele>94.83</ele>
        <time>2022-04-03T08:25:22Z</time>
      </trkpt>
      <trkpt lat="49.56898" lon="-1.51283">
        <ele>93.39</ele>
        <time>2022-04-03T08:25:37Z</time>
      </trkpt>
      <trkpt lat="49.56882" lon="-1.51319">
        <ele>91.46</ele>
        <time>2022-04-03T08:25:53Z</time>
      </trkpt>
      <trkpt lat="49.56874" lon="-1.51337">
        <ele>89.06</ele>
        <time>2022-04-03T08:26:04Z</time>
      </trkpt>
      <trkpt lat="49.5687" lon="-1.51348">
        <ele>88.1</ele>
        <time>2022-04-03T08:26:09Z</time>
      </trkpt>
      <trkpt lat="49.56862" lon="-1.51389">
        <ele>86.66</ele>
        <time>2022-04-03T08:26:25Z</time>
      </trkpt>
      <trkpt lat="49.56859" lon="-1.51431">
        <ele>85.69</ele>
        <time>2022-04-03T08:26:38Z</time>
      </trkpt>
      <trkpt lat="49.5686" lon="-1.51454">
        <ele>85.21</ele>
        <time>2022-04-03T08:26:47Z</time>
      </trkpt>
      <trkpt lat="49.56858" lon="-1.51492">
        <ele>84.25</ele>
        <time>2022-04-03T08:27:03Z</time>
      </trkpt>
      <trkpt lat="49.56856" lon="-1.51525">
        <ele>85.69</ele>
        <time>2022-04-03T08:27:18Z</time>
      </trkpt>
      <trkpt lat="49.56856" lon="-1.51561">
        <ele>87.14</ele>
        <time>2022-04-03T08:27:34Z</time>
      </trkpt>
      <trkpt lat="49.56854" lon="-1.51594">
        <ele>89.06</ele>
        <time>2022-04-03T08:27:48Z</time>
      </trkpt>
      <trkpt lat="49.56852" lon="-1.51629">
        <ele>91.46</ele>
        <time>2022-04-03T08:28:04Z</time>
      </trkpt>
      <trkpt lat="49.56849" lon="-1.51665">
        <ele>93.39</ele>
        <time>2022-04-03T08:28:19Z</time>
      </trkpt>
      <trkpt lat="49.56847" lon="-1.51682">
        <ele>93.87</ele>
        <time>2022-04-03T08:28:25Z</time>
      </trkpt>
      <trkpt lat="49.56845" lon="-1.51692">
        <ele>94.35</ele>
        <time>2022-04-03T08:28:29Z</time>
      </trkpt>
      <trkpt lat="49.56839" lon="-1.51732">
        <ele>96.27</ele>
        <time>2022-04-03T08:28:46Z</time>
      </trkpt>
      <trkpt lat="49.56835" lon="-1.51752">
        <ele>97.23</ele>
        <time>2022-04-03T08:28:55Z</time>
      </trkpt>
      <trkpt lat="49.56828" lon="-1.51778">
        <ele>97.71</ele>
        <time>2022-04-03T08:29:06Z</time>
      </trkpt>
      <trkpt lat="49.56819" lon="-1.51803">
        <ele>97.71</ele>
        <time>2022-04-03T08:29:18Z</time>
      </trkpt>
      <trkpt lat="49.56813" lon="-1.51814">
        <ele>97.71</ele>
        <time>2022-04-03T08:29:24Z</time>
      </trkpt>
      <trkpt lat="49.56795" lon="-1.51846">
        <ele>97.71</ele>
        <time>2022-04-03T08:29:41Z</time>
      </trkpt>
      <trkpt lat="49.56782" lon="-1.51865">
        <ele>97.71</ele>
        <time>2022-04-03T08:29:53Z</time>
      </trkpt>
      <trkpt lat="49.56778" lon="-1.51869">
        <ele>97.71</ele>
        <time>2022-04-03T08:29:56Z</time>
      </trkpt>
      <trkpt lat="49.56755" lon="-1.51898">
        <ele>97.71</ele>
        <time>2022-04-03T08:30:14Z</time>
      </trkpt>
      <trkpt lat="49.56739" lon="-1.5192">
        <ele>96.75</ele>
        <time>2022-04-03T08:30:28Z</time>
      </trkpt>
      <trkpt lat="49.56725" lon="-1.51942">
        <ele>96.27</ele>
        <time>2022-04-03T08:30:43Z</time>
      </trkpt>
      <trkpt lat="49.56723" lon="-1.51946">
        <ele>96.27</ele>
        <time>2022-04-03T08:30:45Z</time>
      </trkpt>
      <trkpt lat="49.56712" lon="-1.51963">
        <ele>96.27</ele>
        <time>2022-04-03T08:30:53Z</time>
      </trkpt>
      <trkpt lat="49.56695" lon="-1.51981">
        <ele>96.27</ele>
        <time>2022-04-03T08:31:08Z</time>
      </trkpt>
      <trkpt lat="49.56678" lon="-1.52005">
        <ele>96.27</ele>
        <time>2022-04-03T08:31:23Z</time>
      </trkpt>
      <trkpt lat="49.56659" lon="-1.52031">
        <ele>95.79</ele>
        <time>2022-04-03T08:31:39Z</time>
      </trkpt>
      <trkpt lat="49.56645" lon="-1.5205">
        <ele>95.79</ele>
        <time>2022-04-03T08:31:52Z</time>
      </trkpt>
      <trkpt lat="49.56629" lon="-1.52071">
        <ele>95.79</ele>
        <time>2022-04-03T08:32:06Z</time>
      </trkpt>
      <trkpt lat="49.5662" lon="-1.52086">
        <ele>95.31</ele>
        <time>2022-04-03T08:32:12Z</time>
      </trkpt>
      <trkpt lat="49.56598" lon="-1.52113">
        <ele>97.23</ele>
        <time>2022-04-03T08:32:29Z</time>
      </trkpt>
      <trkpt lat="49.56583" lon="-1.52132">
        <ele>97.71</ele>
        <time>2022-04-03T08:32:41Z</time>
      </trkpt>
      <trkpt lat="49.56567" lon="-1.52158">
        <ele>98.19</ele>
        <time>2022-04-03T08:32:55Z</time>
      </trkpt>
      <trkpt lat="49.56566" lon="-1.5216">
        <ele>98.19</ele>
        <time>2022-04-03T08:32:56Z</time>
      </trkpt>
      <trkpt lat="49.56545" lon="-1.52187">
        <ele>99.15</ele>
        <time>2022-04-03T08:33:14Z</time>
      </trkpt>
      <trkpt lat="49.5653" lon="-1.52207">
        <ele>99.63</ele>
        <time>2022-04-03T08:33:26Z</time>
      </trkpt>
      <trkpt lat="49.56515" lon="-1.52227">
        <ele>100.11</ele>
        <time>2022-04-03T08:33:38Z</time>
      </trkpt>
      <trkpt lat="49.56497" lon="-1.52253">
        <ele>101.08</ele>
        <time>2022-04-03T08:33:55Z</time>
      </trkpt>
      <trkpt lat="49.5648" lon="-1.52276">
        <ele>101.56</ele>
        <time>2022-04-03T08:34:09Z</time>
      </trkpt>
      <trkpt lat="49.56462" lon="-1.52299">
        <ele>102.04</ele>
        <time>2022-04-03T08:34:26Z</time>
      </trkpt>
      <trkpt lat="49.56445" lon="-1.52324">
        <ele>102.04</ele>
        <time>2022-04-03T08:34:40Z</time>
      </trkpt>
      <trkpt lat="49.56427" lon="-1.52349">
        <ele>102.04</ele>
        <time>2022-04-03T08:34:55Z</time>
      </trkpt>
      <trkpt lat="49.56411" lon="-1.52372">
        <ele>99.63</ele>
        <time>2022-04-03T08:35:10Z</time>
      </trkpt>
      <trkpt lat="49.56395" lon="-1.52396">
        <ele>98.67</ele>
        <time>2022-04-03T08:35:25Z</time>
      </trkpt>
      <trkpt lat="49.56374" lon="-1.5242">
        <ele>96.75</ele>
        <time>2022-04-03T08:35:43Z</time>
      </trkpt>
      <trkpt lat="49.56359" lon="-1.5244">
        <ele>95.31</ele>
        <time>2022-04-03T08:35:56Z</time>
      </trkpt>
      <trkpt lat="49.56342" lon="-1.52463">
        <ele>94.35</ele>
        <time>2022-04-03T08:36:10Z</time>
      </trkpt>
      <trkpt lat="49.56338" lon="-1.5247">
        <ele>93.87</ele>
        <time>2022-04-03T08:36:13Z</time>
      </trkpt>
      <trkpt lat="49.56326" lon="-1.52495">
        <ele>93.87</ele>
        <time>2022-04-03T08:36:21Z</time>
      </trkpt>
      <trkpt lat="49.56315" lon="-1.52507">
        <ele>93.39</ele>
        <time>2022-04-03T08:36:28Z</time>
      </trkpt>
      <trkpt lat="49.56312" lon="-1.5251">
        <ele>93.39</ele>
        <time>2022-04-03T08:36:30Z</time>
      </trkpt>
      <trkpt lat="49.56298" lon="-1.52512">
        <ele>92.9</ele>
        <time>2022-04-03T08:36:43Z</time>
      </trkpt>
      <trkpt lat="49.56274" lon="-1.52509">
        <ele>92.42</ele>
        <time>2022-04-03T08:36:58Z</time>
      </trkpt>
      <trkpt lat="49.56257" lon="-1.52501">
        <ele>91.94</ele>
        <time>2022-04-03T08:37:11Z</time>
      </trkpt>
      <trkpt lat="49.56244" lon="-1.52492">
        <ele>91.94</ele>
        <time>2022-04-03T08:37:18Z</time>
      </trkpt>
      <trkpt lat="49.56225" lon="-1.52479">
        <ele>91.94</ele>
        <time>2022-04-03T08:37:32Z</time>
      </trkpt>
      <trkpt lat="49.56209" lon="-1.52468">
        <ele>91.94</ele>
        <time>2022-04-03T08:37:45Z</time>
      </trkpt>
      <trkpt lat="49.56195" lon="-1.52454">
        <ele>91.46</ele>
        <time>2022-04-03T08:37:56Z</time>
      </trkpt>
      <trkpt lat="49.56172" lon="-1.5243">
        <ele>93.39</ele>
        <time>2022-04-03T08:38:10Z</time>
      </trkpt>
      <trkpt lat="49.5615" lon="-1.52409">
        <ele>92.9</ele>
        <time>2022-04-03T08:38:24Z</time>
      </trkpt>
      <trkpt lat="49.56134" lon="-1.52391">
        <ele>92.9</ele>
        <time>2022-04-03T08:38:37Z</time>
      </trkpt>
      <trkpt lat="49.56115" lon="-1.52378">
        <ele>93.39</ele>
        <time>2022-04-03T08:38:49Z</time>
      </trkpt>
      <trkpt lat="49.56108" lon="-1.5237">
        <ele>93.87</ele>
        <time>2022-04-03T08:38:55Z</time>
      </trkpt>
      <trkpt lat="49.56091" lon="-1.52359">
        <ele>94.83</ele>
        <time>2022-04-03T08:39:10Z</time>
      </trkpt>
      <trkpt lat="49.5609" lon="-1.52357">
        <ele>94.83</ele>
        <time>2022-04-03T08:39:11Z</time>
      </trkpt>
      <trkpt lat="49.56061" lon="-1.52329">
        <ele>95.79</ele>
        <time>2022-04-03T08:39:26Z</time>
      </trkpt>
      <trkpt lat="49.56043" lon="-1.52321">
        <ele>96.75</ele>
        <time>2022-04-03T08:39:39Z</time>
      </trkpt>
      <trkpt lat="49.56032" lon="-1.52313">
        <ele>97.71</ele>
        <time>2022-04-03T08:39:50Z</time>
      </trkpt>
      <trkpt lat="49.5601" lon="-1.52301">
        <ele>99.63</ele>
        <time>2022-04-03T08:40:06Z</time>
      </trkpt>
      <trkpt lat="49.55999" lon="-1.52292">
        <ele>100.6</ele>
        <time>2022-04-03T08:40:12Z</time>
      </trkpt>
      <trkpt lat="49.55994" lon="-1.52287">
        <ele>100.6</ele>
        <time>2022-04-03T08:40:15Z</time>
      </trkpt>
      <trkpt lat="49.55988" lon="-1.52285">
        <ele>100.6</ele>
        <time>2022-04-03T08:40:19Z</time>
      </trkpt>
      <trkpt lat="49.55982" lon="-1.5228">
        <ele>101.08</ele>
        <time>2022-04-03T08:40:23Z</time>
      </trkpt>
      <trkpt lat="49.55966" lon="-1.52266">
        <ele>101.08</ele>
        <time>2022-04-03T08:40:35Z</time>
      </trkpt>
      <trkpt lat="49.55963" lon="-1.52266">
        <ele>101.08</ele>
        <time>2022-04-03T08:40:37Z</time>
      </trkpt>
      <trkpt lat="49.55958" lon="-1.52268">
        <ele>101.56</ele>
        <time>2022-04-03T08:40:42Z</time>
      </trkpt>
      <trkpt lat="49.55952" lon="-1.52265">
        <ele>102.04</ele>
        <time>2022-04-03T08:40:46Z</time>
      </trkpt>
      <trkpt lat="49.55949" lon="-1.52263">
        <ele>102.04</ele>
        <time>2022-04-03T08:40:48Z</time>
      </trkpt>
      <trkpt lat="49.55933" lon="-1.52254">
        <ele>102.04</ele>
        <time>2022-04-03T08:41:01Z</time>
      </trkpt>
      <trkpt lat="49.55929" lon="-1.52253">
        <ele>102.04</ele>
        <time>2022-04-03T08:41:05Z</time>
      </trkpt>
      <trkpt lat="49.55907" lon="-1.52238">
        <ele>102.04</ele>
        <time>2022-04-03T08:41:19Z</time>
      </trkpt>
      <trkpt lat="49.55896" lon="-1.52232">
        <ele>100.6</ele>
        <time>2022-04-03T08:41:27Z</time>
      </trkpt>
      <trkpt lat="49.55887" lon="-1.52229">
        <ele>100.6</ele>
        <time>2022-04-03T08:41:32Z</time>
      </trkpt>
      <trkpt lat="49.55883" lon="-1.52226">
        <ele>100.6</ele>
        <time>2022-04-03T08:41:35Z</time>
      </trkpt>
      <trkpt lat="49.55876" lon="-1.52221">
        <ele>100.11</ele>
        <time>2022-04-03T08:41:39Z</time>
      </trkpt>
      <trkpt lat="49.55872" lon="-1.52218">
        <ele>100.11</ele>
        <time>2022-04-03T08:41:41Z</time>
      </trkpt>
      <trkpt lat="49.55859" lon="-1.52211">
        <ele>99.63</ele>
        <time>2022-04-03T08:41:48Z</time>
      </trkpt>
      <trkpt lat="49.55852" lon="-1.5221">
        <ele>99.63</ele>
        <time>2022-04-03T08:41:53Z</time>
      </trkpt>
      <trkpt lat="49.55848" lon="-1.52214">
        <ele>100.6</ele>
        <time>2022-04-03T08:42:00Z</time>
      </trkpt>
      <trkpt lat="49.55833" lon="-1.52219">
        <ele>102.04</ele>
        <time>2022-04-03T08:42:13Z</time>
      </trkpt>
      <trkpt lat="49.5582" lon="-1.52228">
        <ele>104.44</ele>
        <time>2022-04-03T08:42:24Z</time>
      </trkpt>
      <trkpt lat="49.55803" lon="-1.52249">
        <ele>107.32</ele>
        <time>2022-04-03T08:42:38Z</time>
      </trkpt>
      <trkpt lat="49.55788" lon="-1.52261">
        <ele>109.25</ele>
        <time>2022-04-03T08:42:51Z</time>
      </trkpt>
      <trkpt lat="49.55771" lon="-1.52283">
        <ele>110.21</ele>
        <time>2022-04-03T08:43:01Z</time>
      </trkpt>
      <trkpt lat="49.55762" lon="-1.52299">
        <ele>110.69</ele>
        <time>2022-04-03T08:43:13Z</time>
      </trkpt>
      <trkpt lat="49.55749" lon="-1.52308">
        <ele>112.13</ele>
        <time>2022-04-03T08:43:25Z</time>
      </trkpt>
      <trkpt lat="49.55732" lon="-1.52324">
        <ele>112.61</ele>
        <time>2022-04-03T08:43:39Z</time>
      </trkpt>
      <trkpt lat="49.55709" lon="-1.52348">
        <ele>112.61</ele>
        <time>2022-04-03T08:43:52Z</time>
      </trkpt>
      <trkpt lat="49.5569" lon="-1.52367">
        <ele>112.61</ele>
        <time>2022-04-03T08:44:04Z</time>
      </trkpt>
      <trkpt lat="49.55673" lon="-1.52386">
        <ele>111.65</ele>
        <time>2022-04-03T08:44:15Z</time>
      </trkpt>
      <trkpt lat="49.55662" lon="-1.52393">
        <ele>111.65</ele>
        <time>2022-04-03T08:44:28Z</time>
      </trkpt>
      <trkpt lat="49.55648" lon="-1.52412">
        <ele>113.57</ele>
        <time>2022-04-03T08:44:42Z</time>
      </trkpt>
      <trkpt lat="49.55634" lon="-1.52432">
        <ele>115.5</ele>
        <time>2022-04-03T08:44:54Z</time>
      </trkpt>
      <trkpt lat="49.55621" lon="-1.52444">
        <ele>116.94</ele>
        <time>2022-04-03T08:45:07Z</time>
      </trkpt>
      <trkpt lat="49.55601" lon="-1.52457">
        <ele>116.94</ele>
        <time>2022-04-03T08:45:18Z</time>
      </trkpt>
      <trkpt lat="49.55587" lon="-1.52478">
        <ele>116.94</ele>
        <time>2022-04-03T08:45:29Z</time>
      </trkpt>
      <trkpt lat="49.55575" lon="-1.5249">
        <ele>115.98</ele>
        <time>2022-04-03T08:45:38Z</time>
      </trkpt>
      <trkpt lat="49.55567" lon="-1.52497">
        <ele>115.01</ele>
        <time>2022-04-03T08:45:45Z</time>
      </trkpt>
      <trkpt lat="49.55549" lon="-1.52506">
        <ele>112.61</ele>
        <time>2022-04-03T08:45:57Z</time>
      </trkpt>
      <trkpt lat="49.5554" lon="-1.52495">
        <ele>109.73</ele>
        <time>2022-04-03T08:46:10Z</time>
      </trkpt>
      <trkpt lat="49.55528" lon="-1.52471">
        <ele>106.36</ele>
        <time>2022-04-03T08:46:24Z</time>
      </trkpt>
      <trkpt lat="49.55514" lon="-1.52439">
        <ele>103.48</ele>
        <time>2022-04-03T08:46:40Z</time>
      </trkpt>
      <trkpt lat="49.55506" lon="-1.52421">
        <ele>102.52</ele>
        <time>2022-04-03T08:46:55Z</time>
      </trkpt>
      <trkpt lat="49.55502" lon="-1.52424">
        <ele>102.52</ele>
        <time>2022-04-03T08:47:11Z</time>
      </trkpt>
      <trkpt lat="49.55502" lon="-1.52423">
        <ele>102.04</ele>
        <time>2022-04-03T08:47:33Z</time>
      </trkpt>
      <trkpt lat="49.55502" lon="-1.52424">
        <ele>102.52</ele>
        <time>2022-04-03T08:47:52Z</time>
      </trkpt>
      <trkpt lat="49.55502" lon="-1.52424">
        <ele>102.52</ele>
        <time>2022-04-03T08:48:11Z</time>
      </trkpt>
      <trkpt lat="49.55503" lon="-1.52423">
        <ele>102.52</ele>
        <time>2022-04-03T08:48:27Z</time>
      </trkpt>
      <trkpt lat="49.55504" lon="-1.52423">
        <ele>102.52</ele>
        <time>2022-04-03T08:48:44Z</time>
      </trkpt>
      <trkpt lat="49.55508" lon="-1.52426">
        <ele>103</ele>
        <time>2022-04-03T08:49:00Z</time>
      </trkpt>
      <trkpt lat="49.55511" lon="-1.52434">
        <ele>103.96</ele>
        <time>2022-04-03T08:49:05Z</time>
      </trkpt>
      <trkpt lat="49.55523" lon="-1.52458">
        <ele>107.32</ele>
        <time>2022-04-03T08:49:20Z</time>
      </trkpt>
      <trkpt lat="49.55533" lon="-1.5248">
        <ele>109.73</ele>
        <time>2022-04-03T08:49:34Z</time>
      </trkpt>
      <trkpt lat="49.55539" lon="-1.52493">
        <ele>110.69</ele>
        <time>2022-04-03T08:49:41Z</time>
      </trkpt>
      <trkpt lat="49.55547" lon="-1.5252">
        <ele>113.57</ele>
        <time>2022-04-03T08:49:56Z</time>
      </trkpt>
      <trkpt lat="49.55538" lon="-1.52536">
        <ele>114.05</ele>
        <time>2022-04-03T08:50:09Z</time>
      </trkpt>
      <trkpt lat="49.55536" lon="-1.5254">
        <ele>114.05</ele>
        <time>2022-04-03T08:50:12Z</time>
      </trkpt>
      <trkpt lat="49.55523" lon="-1.52561">
        <ele>115.01</ele>
        <time>2022-04-03T08:50:24Z</time>
      </trkpt>
      <trkpt lat="49.55529" lon="-1.52591">
        <ele>117.42</ele>
        <time>2022-04-03T08:50:41Z</time>
      </trkpt>
      <trkpt lat="49.55535" lon="-1.52609">
        <ele>119.34</ele>
        <time>2022-04-03T08:50:49Z</time>
      </trkpt>
      <trkpt lat="49.5554" lon="-1.52624">
        <ele>120.78</ele>
        <time>2022-04-03T08:50:57Z</time>
      </trkpt>
      <trkpt lat="49.55547" lon="-1.52645">
        <ele>123.67</ele>
        <time>2022-04-03T08:51:11Z</time>
      </trkpt>
      <trkpt lat="49.55549" lon="-1.52649">
        <ele>124.15</ele>
        <time>2022-04-03T08:51:13Z</time>
      </trkpt>
      <trkpt lat="49.55557" lon="-1.52672">
        <ele>126.07</ele>
        <time>2022-04-03T08:51:26Z</time>
      </trkpt>
      <trkpt lat="49.55564" lon="-1.527">
        <ele>127.99</ele>
        <time>2022-04-03T08:51:41Z</time>
      </trkpt>
      <trkpt lat="49.55565" lon="-1.52706">
        <ele>128.47</ele>
        <time>2022-04-03T08:51:44Z</time>
      </trkpt>
      <trkpt lat="49.55573" lon="-1.52729">
        <ele>128.95</ele>
        <time>2022-04-03T08:51:55Z</time>
      </trkpt>
      <trkpt lat="49.55578" lon="-1.52742">
        <ele>129.43</ele>
        <time>2022-04-03T08:52:02Z</time>
      </trkpt>
      <trkpt lat="49.55586" lon="-1.52767">
        <ele>130.88</ele>
        <time>2022-04-03T08:52:16Z</time>
      </trkpt>
      <trkpt lat="49.55599" lon="-1.52814">
        <ele>133.28</ele>
        <time>2022-04-03T08:52:31Z</time>
      </trkpt>
      <trkpt lat="49.55609" lon="-1.52844">
        <ele>136.16</ele>
        <time>2022-04-03T08:52:46Z</time>
      </trkpt>
      <trkpt lat="49.55615" lon="-1.5287">
        <ele>138.57</ele>
        <time>2022-04-03T08:53:00Z</time>
      </trkpt>
      <trkpt lat="49.55623" lon="-1.52894">
        <ele>140.01</ele>
        <time>2022-04-03T08:53:13Z</time>
      </trkpt>
      <trkpt lat="49.55633" lon="-1.52923">
        <ele>141.93</ele>
        <time>2022-04-03T08:53:28Z</time>
      </trkpt>
      <trkpt lat="49.55633" lon="-1.52937">
        <ele>142.41</ele>
        <time>2022-04-03T08:53:35Z</time>
      </trkpt>
      <trkpt lat="49.5562" lon="-1.52965">
        <ele>143.37</ele>
        <time>2022-04-03T08:53:53Z</time>
      </trkpt>
      <trkpt lat="49.55596" lon="-1.52999">
        <ele>143.85</ele>
        <time>2022-04-03T08:54:11Z</time>
      </trkpt>
      <trkpt lat="49.55566" lon="-1.53036">
        <ele>143.85</ele>
        <time>2022-04-03T08:54:31Z</time>
      </trkpt>
      <trkpt lat="49.55543" lon="-1.53066">
        <ele>144.34</ele>
        <time>2022-04-03T08:54:49Z</time>
      </trkpt>
      <trkpt lat="49.55517" lon="-1.53098">
        <ele>144.34</ele>
        <time>2022-04-03T08:55:08Z</time>
      </trkpt>
      <trkpt lat="49.55488" lon="-1.53136">
        <ele>144.82</ele>
        <time>2022-04-03T08:55:30Z</time>
      </trkpt>
      <trkpt lat="49.5546" lon="-1.53172">
        <ele>144.82</ele>
        <time>2022-04-03T08:55:51Z</time>
      </trkpt>
      <trkpt lat="49.55433" lon="-1.53207">
        <ele>144.82</ele>
        <time>2022-04-03T08:56:12Z</time>
      </trkpt>
      <trkpt lat="49.55414" lon="-1.53229">
        <ele>144.82</ele>
        <time>2022-04-03T08:56:27Z</time>
      </trkpt>
      <trkpt lat="49.55393" lon="-1.53258">
        <ele>144.82</ele>
        <time>2022-04-03T08:56:45Z</time>
      </trkpt>
      <trkpt lat="49.55372" lon="-1.53282">
        <ele>144.82</ele>
        <time>2022-04-03T08:57:02Z</time>
      </trkpt>
      <trkpt lat="49.5535" lon="-1.5331">
        <ele>144.82</ele>
        <time>2022-04-03T08:57:17Z</time>
      </trkpt>
      <trkpt lat="49.55329" lon="-1.5334">
        <ele>143.85</ele>
        <time>2022-04-03T08:57:32Z</time>
      </trkpt>
      <trkpt lat="49.55317" lon="-1.53357">
        <ele>143.37</ele>
        <time>2022-04-03T08:57:42Z</time>
      </trkpt>
      <trkpt lat="49.55323" lon="-1.53389">
        <ele>143.37</ele>
        <time>2022-04-03T08:57:58Z</time>
      </trkpt>
      <trkpt lat="49.55329" lon="-1.53425">
        <ele>144.34</ele>
        <time>2022-04-03T08:58:10Z</time>
      </trkpt>
      <trkpt lat="49.55343" lon="-1.53453">
        <ele>145.3</ele>
        <time>2022-04-03T08:58:25Z</time>
      </trkpt>
      <trkpt lat="49.55354" lon="-1.5348">
        <ele>145.78</ele>
        <time>2022-04-03T08:58:37Z</time>
      </trkpt>
      <trkpt lat="49.55345" lon="-1.53527">
        <ele>145.78</ele>
        <time>2022-04-03T08:58:52Z</time>
      </trkpt>
      <trkpt lat="49.55331" lon="-1.5356">
        <ele>144.34</ele>
        <time>2022-04-03T08:59:07Z</time>
      </trkpt>
      <trkpt lat="49.55316" lon="-1.53592">
        <ele>143.37</ele>
        <time>2022-04-03T08:59:23Z</time>
      </trkpt>
      <trkpt lat="49.55298" lon="-1.53629">
        <ele>142.89</ele>
        <time>2022-04-03T08:59:39Z</time>
      </trkpt>
      <trkpt lat="49.55289" lon="-1.53654">
        <ele>142.41</ele>
        <time>2022-04-03T08:59:50Z</time>
      </trkpt>
      <trkpt lat="49.55281" lon="-1.53668">
        <ele>141.93</ele>
        <time>2022-04-03T08:59:58Z</time>
      </trkpt>
      <trkpt lat="49.55268" lon="-1.53693">
        <ele>141.45</ele>
        <time>2022-04-03T09:00:12Z</time>
      </trkpt>
      <trkpt lat="49.55255" lon="-1.53713">
        <ele>140.97</ele>
        <time>2022-04-03T09:00:25Z</time>
      </trkpt>
      <trkpt lat="49.5526" lon="-1.53747">
        <ele>140.97</ele>
        <time>2022-04-03T09:00:39Z</time>
      </trkpt>
      <trkpt lat="49.55274" lon="-1.53778">
        <ele>143.37</ele>
        <time>2022-04-03T09:00:53Z</time>
      </trkpt>
      <trkpt lat="49.5529" lon="-1.53817">
        <ele>144.82</ele>
        <time>2022-04-03T09:01:09Z</time>
      </trkpt>
      <trkpt lat="49.55308" lon="-1.53849">
        <ele>146.26</ele>
        <time>2022-04-03T09:01:26Z</time>
      </trkpt>
      <trkpt lat="49.55326" lon="-1.53869">
        <ele>146.74</ele>
        <time>2022-04-03T09:01:42Z</time>
      </trkpt>
      <trkpt lat="49.55347" lon="-1.53905">
        <ele>147.22</ele>
        <time>2022-04-03T09:01:58Z</time>
      </trkpt>
      <trkpt lat="49.55354" lon="-1.53916">
        <ele>147.22</ele>
        <time>2022-04-03T09:02:02Z</time>
      </trkpt>
      <trkpt lat="49.55377" lon="-1.53955">
        <ele>147.7</ele>
        <time>2022-04-03T09:02:20Z</time>
      </trkpt>
      <trkpt lat="49.55394" lon="-1.53981">
        <ele>146.74</ele>
        <time>2022-04-03T09:02:35Z</time>
      </trkpt>
      <trkpt lat="49.55395" lon="-1.5398">
        <ele>146.74</ele>
        <time>2022-04-03T09:02:36Z</time>
      </trkpt>
      <trkpt lat="49.554" lon="-1.53992">
        <ele>146.26</ele>
        <time>2022-04-03T09:02:41Z</time>
      </trkpt>
      <trkpt lat="49.55408" lon="-1.54006">
        <ele>146.26</ele>
        <time>2022-04-03T09:02:48Z</time>
      </trkpt>
      <trkpt lat="49.55428" lon="-1.54033">
        <ele>146.26</ele>
        <time>2022-04-03T09:03:05Z</time>
      </trkpt>
      <trkpt lat="49.55432" lon="-1.5404">
        <ele>146.26</ele>
        <time>2022-04-03T09:03:09Z</time>
      </trkpt>
      <trkpt lat="49.55446" lon="-1.54069">
        <ele>147.22</ele>
        <time>2022-04-03T09:03:27Z</time>
      </trkpt>
      <trkpt lat="49.55459" lon="-1.54096">
        <ele>147.7</ele>
        <time>2022-04-03T09:03:43Z</time>
      </trkpt>
      <trkpt lat="49.55482" lon="-1.54122">
        <ele>148.18</ele>
        <time>2022-04-03T09:03:58Z</time>
      </trkpt>
      <trkpt lat="49.55489" lon="-1.54147">
        <ele>149.14</ele>
        <time>2022-04-03T09:04:12Z</time>
      </trkpt>
      <trkpt lat="49.55487" lon="-1.54152">
        <ele>149.14</ele>
        <time>2022-04-03T09:04:15Z</time>
      </trkpt>
      <trkpt lat="49.55481" lon="-1.54163">
        <ele>149.14</ele>
        <time>2022-04-03T09:04:20Z</time>
      </trkpt>
      <trkpt lat="49.55473" lon="-1.54177">
        <ele>147.22</ele>
        <time>2022-04-03T09:04:28Z</time>
      </trkpt>
      <trkpt lat="49.55466" lon="-1.54193">
        <ele>146.74</ele>
        <time>2022-04-03T09:04:36Z</time>
      </trkpt>
      <trkpt lat="49.55455" lon="-1.54219">
        <ele>146.26</ele>
        <time>2022-04-03T09:04:48Z</time>
      </trkpt>
      <trkpt lat="49.55443" lon="-1.54241">
        <ele>146.26</ele>
        <time>2022-04-03T09:04:59Z</time>
      </trkpt>
      <trkpt lat="49.55428" lon="-1.54267">
        <ele>145.78</ele>
        <time>2022-04-03T09:05:12Z</time>
      </trkpt>
      <trkpt lat="49.55412" lon="-1.54298">
        <ele>145.3</ele>
        <time>2022-04-03T09:05:26Z</time>
      </trkpt>
      <trkpt lat="49.55406" lon="-1.54313">
        <ele>145.3</ele>
        <time>2022-04-03T09:05:34Z</time>
      </trkpt>
      <trkpt lat="49.55391" lon="-1.54337">
        <ele>145.3</ele>
        <time>2022-04-03T09:05:48Z</time>
      </trkpt>
      <trkpt lat="49.55378" lon="-1.54366">
        <ele>145.3</ele>
        <time>2022-04-03T09:06:01Z</time>
      </trkpt>
      <trkpt lat="49.55358" lon="-1.54404">
        <ele>145.3</ele>
        <time>2022-04-03T09:06:18Z</time>
      </trkpt>
      <trkpt lat="49.55356" lon="-1.5441">
        <ele>145.3</ele>
        <time>2022-04-03T09:06:21Z</time>
      </trkpt>
      <trkpt lat="49.55353" lon="-1.54414">
        <ele>145.3</ele>
        <time>2022-04-03T09:06:23Z</time>
      </trkpt>
      <trkpt lat="49.55332" lon="-1.54457">
        <ele>145.78</ele>
        <time>2022-04-03T09:06:43Z</time>
      </trkpt>
      <trkpt lat="49.55321" lon="-1.54477">
        <ele>146.74</ele>
        <time>2022-04-03T09:06:53Z</time>
      </trkpt>
      <trkpt lat="49.55304" lon="-1.54508">
        <ele>147.7</ele>
        <time>2022-04-03T09:07:09Z</time>
      </trkpt>
      <trkpt lat="49.55282" lon="-1.54551">
        <ele>147.7</ele>
        <time>2022-04-03T09:07:30Z</time>
      </trkpt>
      <trkpt lat="49.55256" lon="-1.54596">
        <ele>147.7</ele>
        <time>2022-04-03T09:07:53Z</time>
      </trkpt>
      <trkpt lat="49.55242" lon="-1.54621">
        <ele>146.26</ele>
        <time>2022-04-03T09:08:05Z</time>
      </trkpt>
      <trkpt lat="49.55221" lon="-1.54663">
        <ele>146.26</ele>
        <time>2022-04-03T09:08:26Z</time>
      </trkpt>
      <trkpt lat="49.55207" lon="-1.54687">
        <ele>145.3</ele>
        <time>2022-04-03T09:08:41Z</time>
      </trkpt>
      <trkpt lat="49.55192" lon="-1.54691">
        <ele>142.41</ele>
        <time>2022-04-03T09:08:54Z</time>
      </trkpt>
      <trkpt lat="49.55184" lon="-1.54687">
        <ele>141.45</ele>
        <time>2022-04-03T09:09:01Z</time>
      </trkpt>
      <trkpt lat="49.55181" lon="-1.54689">
        <ele>141.45</ele>
        <time>2022-04-03T09:09:04Z</time>
      </trkpt>
      <trkpt lat="49.55172" lon="-1.54674">
        <ele>140.01</ele>
        <time>2022-04-03T09:09:12Z</time>
      </trkpt>
      <trkpt lat="49.55166" lon="-1.54666">
        <ele>139.05</ele>
        <time>2022-04-03T09:09:16Z</time>
      </trkpt>
      <trkpt lat="49.55163" lon="-1.54659">
        <ele>138.57</ele>
        <time>2022-04-03T09:09:20Z</time>
      </trkpt>
      <trkpt lat="49.55147" lon="-1.54627">
        <ele>136.16</ele>
        <time>2022-04-03T09:09:35Z</time>
      </trkpt>
      <trkpt lat="49.55137" lon="-1.54601">
        <ele>134.24</ele>
        <time>2022-04-03T09:09:46Z</time>
      </trkpt>
      <trkpt lat="49.55124" lon="-1.54577">
        <ele>132.32</ele>
        <time>2022-04-03T09:09:58Z</time>
      </trkpt>
      <trkpt lat="49.55107" lon="-1.5455">
        <ele>129.43</ele>
        <time>2022-04-03T09:10:11Z</time>
      </trkpt>
      <trkpt lat="49.55096" lon="-1.54532">
        <ele>127.51</ele>
        <time>2022-04-03T09:10:21Z</time>
      </trkpt>
      <trkpt lat="49.55086" lon="-1.54525">
        <ele>126.55</ele>
        <time>2022-04-03T09:10:28Z</time>
      </trkpt>
      <trkpt lat="49.55072" lon="-1.54502">
        <ele>124.15</ele>
        <time>2022-04-03T09:10:42Z</time>
      </trkpt>
      <trkpt lat="49.55068" lon="-1.54496">
        <ele>123.19</ele>
        <time>2022-04-03T09:10:47Z</time>
      </trkpt>
      <trkpt lat="49.55055" lon="-1.54491">
        <ele>121.26</ele>
        <time>2022-04-03T09:11:00Z</time>
      </trkpt>
      <trkpt lat="49.5505" lon="-1.54499">
        <ele>120.78</ele>
        <time>2022-04-03T09:11:05Z</time>
      </trkpt>
      <trkpt lat="49.55043" lon="-1.54526">
        <ele>118.38</ele>
        <time>2022-04-03T09:11:19Z</time>
      </trkpt>
      <trkpt lat="49.55036" lon="-1.54564">
        <ele>115.98</ele>
        <time>2022-04-03T09:11:34Z</time>
      </trkpt>
      <trkpt lat="49.55031" lon="-1.54593">
        <ele>113.57</ele>
        <time>2022-04-03T09:11:46Z</time>
      </trkpt>
      <trkpt lat="49.55021" lon="-1.5464">
        <ele>111.65</ele>
        <time>2022-04-03T09:12:00Z</time>
      </trkpt>
      <trkpt lat="49.55012" lon="-1.54672">
        <ele>109.73</ele>
        <time>2022-04-03T09:12:12Z</time>
      </trkpt>
      <trkpt lat="49.55005" lon="-1.54676">
        <ele>109.25</ele>
        <time>2022-04-03T09:12:16Z</time>
      </trkpt>
      <trkpt lat="49.54968" lon="-1.54688">
        <ele>105.88</ele>
        <time>2022-04-03T09:12:36Z</time>
      </trkpt>
      <trkpt lat="49.5494" lon="-1.5469">
        <ele>103.48</ele>
        <time>2022-04-03T09:12:52Z</time>
      </trkpt>
      <trkpt lat="49.5491" lon="-1.54697">
        <ele>101.08</ele>
        <time>2022-04-03T09:13:11Z</time>
      </trkpt>
      <trkpt lat="49.54887" lon="-1.547">
        <ele>99.15</ele>
        <time>2022-04-03T09:13:26Z</time>
      </trkpt>
      <trkpt lat="49.54861" lon="-1.547">
        <ele>97.23</ele>
        <time>2022-04-03T09:13:40Z</time>
      </trkpt>
      <trkpt lat="49.54851" lon="-1.54692">
        <ele>96.27</ele>
        <time>2022-04-03T09:13:47Z</time>
      </trkpt>
      <trkpt lat="49.54851" lon="-1.54677">
        <ele>96.27</ele>
        <time>2022-04-03T09:13:54Z</time>
      </trkpt>
      <trkpt lat="49.54833" lon="-1.54631">
        <ele>96.27</ele>
        <time>2022-04-03T09:14:12Z</time>
      </trkpt>
      <trkpt lat="49.54814" lon="-1.54583">
        <ele>95.31</ele>
        <time>2022-04-03T09:14:32Z</time>
      </trkpt>
      <trkpt lat="49.54794" lon="-1.54534">
        <ele>92.9</ele>
        <time>2022-04-03T09:14:54Z</time>
      </trkpt>
      <trkpt lat="49.54776" lon="-1.54493">
        <ele>90.98</ele>
        <time>2022-04-03T09:15:13Z</time>
      </trkpt>
      <trkpt lat="49.5476" lon="-1.54451">
        <ele>89.06</ele>
        <time>2022-04-03T09:15:31Z</time>
      </trkpt>
      <trkpt lat="49.54746" lon="-1.54417">
        <ele>87.14</ele>
        <time>2022-04-03T09:15:48Z</time>
      </trkpt>
      <trkpt lat="49.54744" lon="-1.54412">
        <ele>86.66</ele>
        <time>2022-04-03T09:15:51Z</time>
      </trkpt>
      <trkpt lat="49.5474" lon="-1.54405">
        <ele>86.66</ele>
        <time>2022-04-03T09:15:54Z</time>
      </trkpt>
      <trkpt lat="49.54731" lon="-1.54387">
        <ele>85.21</ele>
        <time>2022-04-03T09:16:03Z</time>
      </trkpt>
      <trkpt lat="49.54715" lon="-1.54361">
        <ele>83.29</ele>
        <time>2022-04-03T09:16:16Z</time>
      </trkpt>
      <trkpt lat="49.54694" lon="-1.54323">
        <ele>81.37</ele>
        <time>2022-04-03T09:16:35Z</time>
      </trkpt>
      <trkpt lat="49.54674" lon="-1.54302">
        <ele>80.41</ele>
        <time>2022-04-03T09:16:50Z</time>
      </trkpt>
      <trkpt lat="49.54669" lon="-1.54301">
        <ele>80.41</ele>
        <time>2022-04-03T09:16:53Z</time>
      </trkpt>
      <trkpt lat="49.54659" lon="-1.54306">
        <ele>79.45</ele>
        <time>2022-04-03T09:17:05Z</time>
      </trkpt>
      <trkpt lat="49.54659" lon="-1.54307">
        <ele>79.45</ele>
        <time>2022-04-03T09:17:06Z</time>
      </trkpt>
      <trkpt lat="49.54656" lon="-1.54308">
        <ele>79.45</ele>
        <time>2022-04-03T09:17:08Z</time>
      </trkpt>
      <trkpt lat="49.54643" lon="-1.54319">
        <ele>78.48</ele>
        <time>2022-04-03T09:17:19Z</time>
      </trkpt>
      <trkpt lat="49.54641" lon="-1.54322">
        <ele>78.48</ele>
        <time>2022-04-03T09:17:21Z</time>
      </trkpt>
      <trkpt lat="49.54622" lon="-1.54337">
        <ele>77.52</ele>
        <time>2022-04-03T09:17:33Z</time>
      </trkpt>
      <trkpt lat="49.54604" lon="-1.54351">
        <ele>76.56</ele>
        <time>2022-04-03T09:17:45Z</time>
      </trkpt>
      <trkpt lat="49.54588" lon="-1.54365">
        <ele>76.56</ele>
        <time>2022-04-03T09:17:56Z</time>
      </trkpt>
      <trkpt lat="49.54573" lon="-1.54387">
        <ele>75.6</ele>
        <time>2022-04-03T09:18:11Z</time>
      </trkpt>
      <trkpt lat="49.54549" lon="-1.54415">
        <ele>74.64</ele>
        <time>2022-04-03T09:18:27Z</time>
      </trkpt>
      <trkpt lat="49.54535" lon="-1.54429">
        <ele>74.16</ele>
        <time>2022-04-03T09:18:39Z</time>
      </trkpt>
      <trkpt lat="49.54519" lon="-1.54447">
        <ele>73.68</ele>
        <time>2022-04-03T09:18:51Z</time>
      </trkpt>
      <trkpt lat="49.545" lon="-1.54469">
        <ele>72.24</ele>
        <time>2022-04-03T09:19:05Z</time>
      </trkpt>
      <trkpt lat="49.54493" lon="-1.54477">
        <ele>71.76</ele>
        <time>2022-04-03T09:19:10Z</time>
      </trkpt>
      <trkpt lat="49.54487" lon="-1.54479">
        <ele>71.27</ele>
        <time>2022-04-03T09:19:14Z</time>
      </trkpt>
      <trkpt lat="49.54467" lon="-1.54461">
        <ele>67.91</ele>
        <time>2022-04-03T09:19:30Z</time>
      </trkpt>
      <trkpt lat="49.54453" lon="-1.54442">
        <ele>66.47</ele>
        <time>2022-04-03T09:19:43Z</time>
      </trkpt>
      <trkpt lat="49.54443" lon="-1.54423">
        <ele>65.51</ele>
        <time>2022-04-03T09:19:55Z</time>
      </trkpt>
      <trkpt lat="49.54425" lon="-1.54403">
        <ele>64.55</ele>
        <time>2022-04-03T09:20:08Z</time>
      </trkpt>
      <trkpt lat="49.54409" lon="-1.54395">
        <ele>64.55</ele>
        <time>2022-04-03T09:20:20Z</time>
      </trkpt>
      <trkpt lat="49.54406" lon="-1.54399">
        <ele>64.55</ele>
        <time>2022-04-03T09:20:25Z</time>
      </trkpt>
      <trkpt lat="49.54381" lon="-1.54414">
        <ele>64.55</ele>
        <time>2022-04-03T09:20:39Z</time>
      </trkpt>
      <trkpt lat="49.5437" lon="-1.54411">
        <ele>65.99</ele>
        <time>2022-04-03T09:20:48Z</time>
      </trkpt>
      <trkpt lat="49.54349" lon="-1.54385">
        <ele>68.39</ele>
        <time>2022-04-03T09:21:04Z</time>
      </trkpt>
      <trkpt lat="49.54336" lon="-1.54355">
        <ele>69.35</ele>
        <time>2022-04-03T09:21:17Z</time>
      </trkpt>
      <trkpt lat="49.54321" lon="-1.5433">
        <ele>69.35</ele>
        <time>2022-04-03T09:21:33Z</time>
      </trkpt>
      <trkpt lat="49.54302" lon="-1.54293">
        <ele>69.35</ele>
        <time>2022-04-03T09:21:49Z</time>
      </trkpt>
      <trkpt lat="49.54276" lon="-1.54238">
        <ele>69.83</ele>
        <time>2022-04-03T09:22:14Z</time>
      </trkpt>
      <trkpt lat="49.54251" lon="-1.54192">
        <ele>66.95</ele>
        <time>2022-04-03T09:22:37Z</time>
      </trkpt>
      <trkpt lat="49.54234" lon="-1.54151">
        <ele>65.51</ele>
        <time>2022-04-03T09:22:57Z</time>
      </trkpt>
      <trkpt lat="49.54222" lon="-1.541">
        <ele>65.51</ele>
        <time>2022-04-03T09:23:18Z</time>
      </trkpt>
      <trkpt lat="49.54212" lon="-1.54062">
        <ele>65.03</ele>
        <time>2022-04-03T09:23:35Z</time>
      </trkpt>
      <trkpt lat="49.54204" lon="-1.54024">
        <ele>65.03</ele>
        <time>2022-04-03T09:23:52Z</time>
      </trkpt>
      <trkpt lat="49.54201" lon="-1.54007">
        <ele>64.55</ele>
        <time>2022-04-03T09:23:59Z</time>
      </trkpt>
      <trkpt lat="49.542" lon="-1.53999">
        <ele>64.55</ele>
        <time>2022-04-03T09:24:03Z</time>
      </trkpt>
      <trkpt lat="49.5421" lon="-1.53982">
        <ele>63.58</ele>
        <time>2022-04-03T09:24:15Z</time>
      </trkpt>
      <trkpt lat="49.54213" lon="-1.53951">
        <ele>62.14</ele>
        <time>2022-04-03T09:24:27Z</time>
      </trkpt>
      <trkpt lat="49.54207" lon="-1.53922">
        <ele>59.74</ele>
        <time>2022-04-03T09:24:42Z</time>
      </trkpt>
      <trkpt lat="49.54207" lon="-1.53888">
        <ele>57.82</ele>
        <time>2022-04-03T09:24:57Z</time>
      </trkpt>
      <trkpt lat="49.54209" lon="-1.53865">
        <ele>57.34</ele>
        <time>2022-04-03T09:25:04Z</time>
      </trkpt>
      <trkpt lat="49.54216" lon="-1.53837">
        <ele>57.34</ele>
        <time>2022-04-03T09:25:20Z</time>
      </trkpt>
      <trkpt lat="49.54226" lon="-1.53807">
        <ele>57.34</ele>
        <time>2022-04-03T09:25:34Z</time>
      </trkpt>
      <trkpt lat="49.54229" lon="-1.53796">
        <ele>59.26</ele>
        <time>2022-04-03T09:25:40Z</time>
      </trkpt>
      <trkpt lat="49.54231" lon="-1.53774">
        <ele>60.22</ele>
        <time>2022-04-03T09:25:53Z</time>
      </trkpt>
      <trkpt lat="49.54232" lon="-1.53744">
        <ele>62.14</ele>
        <time>2022-04-03T09:26:08Z</time>
      </trkpt>
      <trkpt lat="49.54236" lon="-1.53707">
        <ele>65.03</ele>
        <time>2022-04-03T09:26:24Z</time>
      </trkpt>
      <trkpt lat="49.54242" lon="-1.53695">
        <ele>65.99</ele>
        <time>2022-04-03T09:26:31Z</time>
      </trkpt>
      <trkpt lat="49.54245" lon="-1.53689">
        <ele>65.99</ele>
        <time>2022-04-03T09:26:35Z</time>
      </trkpt>
      <trkpt lat="49.54264" lon="-1.53673">
        <ele>65.99</ele>
        <time>2022-04-03T09:26:48Z</time>
      </trkpt>
      <trkpt lat="49.54288" lon="-1.53658">
        <ele>66.47</ele>
        <time>2022-04-03T09:27:02Z</time>
      </trkpt>
      <trkpt lat="49.54304" lon="-1.5365">
        <ele>67.43</ele>
        <time>2022-04-03T09:27:16Z</time>
      </trkpt>
      <trkpt lat="49.54321" lon="-1.53636">
        <ele>67.91</ele>
        <time>2022-04-03T09:27:28Z</time>
      </trkpt>
      <trkpt lat="49.54321" lon="-1.53635">
        <ele>67.91</ele>
        <time>2022-04-03T09:27:29Z</time>
      </trkpt>
      <trkpt lat="49.54332" lon="-1.53619">
        <ele>68.39</ele>
        <time>2022-04-03T09:27:38Z</time>
      </trkpt>
      <trkpt lat="49.54331" lon="-1.53616">
        <ele>68.39</ele>
        <time>2022-04-03T09:27:40Z</time>
      </trkpt>
      <trkpt lat="49.54328" lon="-1.53608">
        <ele>68.39</ele>
        <time>2022-04-03T09:27:45Z</time>
      </trkpt>
      <trkpt lat="49.54315" lon="-1.53578">
        <ele>68.87</ele>
        <time>2022-04-03T09:28:00Z</time>
      </trkpt>
      <trkpt lat="49.54301" lon="-1.53544">
        <ele>69.83</ele>
        <time>2022-04-03T09:28:17Z</time>
      </trkpt>
      <trkpt lat="49.54286" lon="-1.53509">
        <ele>70.79</ele>
        <time>2022-04-03T09:28:34Z</time>
      </trkpt>
      <trkpt lat="49.54271" lon="-1.53474">
        <ele>72.72</ele>
        <time>2022-04-03T09:28:53Z</time>
      </trkpt>
      <trkpt lat="49.54256" lon="-1.53442">
        <ele>73.2</ele>
        <time>2022-04-03T09:29:10Z</time>
      </trkpt>
      <trkpt lat="49.54242" lon="-1.5341">
        <ele>73.68</ele>
        <time>2022-04-03T09:29:27Z</time>
      </trkpt>
      <trkpt lat="49.54228" lon="-1.53374">
        <ele>73.68</ele>
        <time>2022-04-03T09:29:44Z</time>
      </trkpt>
      <trkpt lat="49.54215" lon="-1.53343">
        <ele>75.12</ele>
        <time>2022-04-03T09:30:01Z</time>
      </trkpt>
      <trkpt lat="49.54202" lon="-1.53315">
        <ele>76.56</ele>
        <time>2022-04-03T09:30:16Z</time>
      </trkpt>
      <trkpt lat="49.5419" lon="-1.53281">
        <ele>77.04</ele>
        <time>2022-04-03T09:30:33Z</time>
      </trkpt>
      <trkpt lat="49.54178" lon="-1.53248">
        <ele>78.48</ele>
        <time>2022-04-03T09:30:50Z</time>
      </trkpt>
      <trkpt lat="49.54166" lon="-1.53215">
        <ele>78.48</ele>
        <time>2022-04-03T09:31:06Z</time>
      </trkpt>
      <trkpt lat="49.54157" lon="-1.53188">
        <ele>78.97</ele>
        <time>2022-04-03T09:31:20Z</time>
      </trkpt>
      <trkpt lat="49.54144" lon="-1.53148">
        <ele>78.97</ele>
        <time>2022-04-03T09:31:39Z</time>
      </trkpt>
      <trkpt lat="49.54127" lon="-1.53115">
        <ele>78.97</ele>
        <time>2022-04-03T09:31:57Z</time>
      </trkpt>
      <trkpt lat="49.5412" lon="-1.53099">
        <ele>80.41</ele>
        <time>2022-04-03T09:32:06Z</time>
      </trkpt>
      <trkpt lat="49.54102" lon="-1.5307">
        <ele>82.33</ele>
        <time>2022-04-03T09:32:25Z</time>
      </trkpt>
      <trkpt lat="49.54083" lon="-1.53073">
        <ele>82.81</ele>
        <time>2022-04-03T09:32:38Z</time>
      </trkpt>
      <trkpt lat="49.54066" lon="-1.531">
        <ele>82.81</ele>
        <time>2022-04-03T09:32:56Z</time>
      </trkpt>
      <trkpt lat="49.54051" lon="-1.53126">
        <ele>82.81</ele>
        <time>2022-04-03T09:33:11Z</time>
      </trkpt>
      <trkpt lat="49.54046" lon="-1.53132">
        <ele>81.37</ele>
        <time>2022-04-03T09:33:15Z</time>
      </trkpt>
      <trkpt lat="49.5403" lon="-1.53156">
        <ele>80.41</ele>
        <time>2022-04-03T09:33:29Z</time>
      </trkpt>
      <trkpt lat="49.54016" lon="-1.53178">
        <ele>79.45</ele>
        <time>2022-04-03T09:33:42Z</time>
      </trkpt>
      <trkpt lat="49.54016" lon="-1.53187">
        <ele>79.45</ele>
        <time>2022-04-03T09:33:46Z</time>
      </trkpt>
      <trkpt lat="49.54021" lon="-1.53194">
        <ele>78</ele>
        <time>2022-04-03T09:33:52Z</time>
      </trkpt>
      <trkpt lat="49.54035" lon="-1.53207">
        <ele>76.08</ele>
        <time>2022-04-03T09:34:06Z</time>
      </trkpt>
      <trkpt lat="49.54035" lon="-1.53209">
        <ele>76.56</ele>
        <time>2022-04-03T09:34:07Z</time>
      </trkpt>
      <trkpt lat="49.54033" lon="-1.5322">
        <ele>75.12</ele>
        <time>2022-04-03T09:34:12Z</time>
      </trkpt>
      <trkpt lat="49.54026" lon="-1.53258">
        <ele>73.2</ele>
        <time>2022-04-03T09:34:27Z</time>
      </trkpt>
      <trkpt lat="49.54021" lon="-1.5328">
        <ele>72.72</ele>
        <time>2022-04-03T09:34:38Z</time>
      </trkpt>
      <trkpt lat="49.54018" lon="-1.53295">
        <ele>72.72</ele>
        <time>2022-04-03T09:34:43Z</time>
      </trkpt>
      <trkpt lat="49.54013" lon="-1.53311">
        <ele>72.24</ele>
        <time>2022-04-03T09:34:49Z</time>
      </trkpt>
      <trkpt lat="49.54009" lon="-1.53322">
        <ele>71.76</ele>
        <time>2022-04-03T09:34:54Z</time>
      </trkpt>
      <trkpt lat="49.54006" lon="-1.53333">
        <ele>71.27</ele>
        <time>2022-04-03T09:35:09Z</time>
      </trkpt>
      <trkpt lat="49.54006" lon="-1.53338">
        <ele>71.27</ele>
        <time>2022-04-03T09:35:26Z</time>
      </trkpt>
      <trkpt lat="49.54005" lon="-1.53337">
        <ele>71.27</ele>
        <time>2022-04-03T09:35:42Z</time>
      </trkpt>
      <trkpt lat="49.54006" lon="-1.53342">
        <ele>71.27</ele>
        <time>2022-04-03T09:36:00Z</time>
      </trkpt>
      <trkpt lat="49.54005" lon="-1.53336">
        <ele>71.76</ele>
        <time>2022-04-03T09:36:17Z</time>
      </trkpt>
      <trkpt lat="49.54006" lon="-1.53333">
        <ele>71.76</ele>
        <time>2022-04-03T09:36:29Z</time>
      </trkpt>
      <trkpt lat="49.54002" lon="-1.53338">
        <ele>71.76</ele>
        <time>2022-04-03T09:36:43Z</time>
      </trkpt>
      <trkpt lat="49.53995" lon="-1.53356">
        <ele>71.76</ele>
        <time>2022-04-03T09:36:57Z</time>
      </trkpt>
      <trkpt lat="49.5399" lon="-1.53375">
        <ele>70.31</ele>
        <time>2022-04-03T09:37:10Z</time>
      </trkpt>
      <trkpt lat="49.53984" lon="-1.53403">
        <ele>70.31</ele>
        <time>2022-04-03T09:37:23Z</time>
      </trkpt>
      <trkpt lat="49.53975" lon="-1.53438">
        <ele>70.31</ele>
        <time>2022-04-03T09:37:38Z</time>
      </trkpt>
      <trkpt lat="49.5397" lon="-1.5347">
        <ele>70.31</ele>
        <time>2022-04-03T09:37:50Z</time>
      </trkpt>
      <trkpt lat="49.53968" lon="-1.53501">
        <ele>70.31</ele>
        <time>2022-04-03T09:38:03Z</time>
      </trkpt>
      <trkpt lat="49.53967" lon="-1.53527">
        <ele>69.35</ele>
        <time>2022-04-03T09:38:17Z</time>
      </trkpt>
      <trkpt lat="49.53964" lon="-1.53557">
        <ele>68.87</ele>
        <time>2022-04-03T09:38:31Z</time>
      </trkpt>
      <trkpt lat="49.53966" lon="-1.53597">
        <ele>66.47</ele>
        <time>2022-04-03T09:38:45Z</time>
      </trkpt>
      <trkpt lat="49.53975" lon="-1.53623">
        <ele>64.07</ele>
        <time>2022-04-03T09:38:58Z</time>
      </trkpt>
      <trkpt lat="49.53978" lon="-1.53632">
        <ele>63.1</ele>
        <time>2022-04-03T09:39:03Z</time>
      </trkpt>
      <trkpt lat="49.5399" lon="-1.53651">
        <ele>61.66</ele>
        <time>2022-04-03T09:39:12Z</time>
      </trkpt>
      <trkpt lat="49.54001" lon="-1.53684">
        <ele>60.22</ele>
        <time>2022-04-03T09:39:28Z</time>
      </trkpt>
      <trkpt lat="49.54002" lon="-1.53696">
        <ele>59.26</ele>
        <time>2022-04-03T09:39:32Z</time>
      </trkpt>
      <trkpt lat="49.54004" lon="-1.53737">
        <ele>59.26</ele>
        <time>2022-04-03T09:39:47Z</time>
      </trkpt>
      <trkpt lat="49.54004" lon="-1.53748">
        <ele>58.78</ele>
        <time>2022-04-03T09:39:51Z</time>
      </trkpt>
      <trkpt lat="49.54002" lon="-1.53776">
        <ele>58.78</ele>
        <time>2022-04-03T09:40:04Z</time>
      </trkpt>
      <trkpt lat="49.54008" lon="-1.53798">
        <ele>58.3</ele>
        <time>2022-04-03T09:40:15Z</time>
      </trkpt>
      <trkpt lat="49.54009" lon="-1.53831">
        <ele>57.34</ele>
        <time>2022-04-03T09:40:28Z</time>
      </trkpt>
      <trkpt lat="49.54007" lon="-1.5384">
        <ele>57.34</ele>
        <time>2022-04-03T09:40:32Z</time>
      </trkpt>
      <trkpt lat="49.54005" lon="-1.53844">
        <ele>57.34</ele>
        <time>2022-04-03T09:40:35Z</time>
      </trkpt>
      <trkpt lat="49.53991" lon="-1.53864">
        <ele>57.34</ele>
        <time>2022-04-03T09:40:49Z</time>
      </trkpt>
      <trkpt lat="49.53976" lon="-1.53886">
        <ele>57.34</ele>
        <time>2022-04-03T09:41:02Z</time>
      </trkpt>
      <trkpt lat="49.5396" lon="-1.53902">
        <ele>57.34</ele>
        <time>2022-04-03T09:41:15Z</time>
      </trkpt>
      <trkpt lat="49.53946" lon="-1.53917">
        <ele>58.78</ele>
        <time>2022-04-03T09:41:28Z</time>
      </trkpt>
      <trkpt lat="49.53937" lon="-1.53926">
        <ele>60.22</ele>
        <time>2022-04-03T09:41:40Z</time>
      </trkpt>
      <trkpt lat="49.53918" lon="-1.53943">
        <ele>60.7</ele>
        <time>2022-04-03T09:41:52Z</time>
      </trkpt>
      <trkpt lat="49.53901" lon="-1.5396">
        <ele>61.18</ele>
        <time>2022-04-03T09:42:06Z</time>
      </trkpt>
      <trkpt lat="49.5388" lon="-1.53973">
        <ele>62.62</ele>
        <time>2022-04-03T09:42:22Z</time>
      </trkpt>
      <trkpt lat="49.53876" lon="-1.53972">
        <ele>62.62</ele>
        <time>2022-04-03T09:42:25Z</time>
      </trkpt>
      <trkpt lat="49.53861" lon="-1.53954">
        <ele>64.55</ele>
        <time>2022-04-03T09:42:40Z</time>
      </trkpt>
      <trkpt lat="49.53849" lon="-1.5393">
        <ele>65.03</ele>
        <time>2022-04-03T09:42:53Z</time>
      </trkpt>
      <trkpt lat="49.53848" lon="-1.53927">
        <ele>65.51</ele>
        <time>2022-04-03T09:42:54Z</time>
      </trkpt>
      <trkpt lat="49.53833" lon="-1.53898">
        <ele>66.95</ele>
        <time>2022-04-03T09:43:11Z</time>
      </trkpt>
      <trkpt lat="49.53832" lon="-1.53896">
        <ele>67.43</ele>
        <time>2022-04-03T09:43:12Z</time>
      </trkpt>
      <trkpt lat="49.53819" lon="-1.53874">
        <ele>68.39</ele>
        <time>2022-04-03T09:43:24Z</time>
      </trkpt>
      <trkpt lat="49.53808" lon="-1.53855">
        <ele>69.83</ele>
        <time>2022-04-03T09:43:38Z</time>
      </trkpt>
      <trkpt lat="49.53794" lon="-1.53834">
        <ele>71.76</ele>
        <time>2022-04-03T09:43:53Z</time>
      </trkpt>
      <trkpt lat="49.53783" lon="-1.53812">
        <ele>72.72</ele>
        <time>2022-04-03T09:44:07Z</time>
      </trkpt>
      <trkpt lat="49.5377" lon="-1.53786">
        <ele>74.16</ele>
        <time>2022-04-03T09:44:23Z</time>
      </trkpt>
      <trkpt lat="49.53764" lon="-1.53775">
        <ele>74.64</ele>
        <time>2022-04-03T09:44:30Z</time>
      </trkpt>
      <trkpt lat="49.53749" lon="-1.53741">
        <ele>75.12</ele>
        <time>2022-04-03T09:44:46Z</time>
      </trkpt>
      <trkpt lat="49.53736" lon="-1.5371">
        <ele>75.6</ele>
        <time>2022-04-03T09:45:02Z</time>
      </trkpt>
      <trkpt lat="49.53725" lon="-1.53684">
        <ele>75.6</ele>
        <time>2022-04-03T09:45:17Z</time>
      </trkpt>
      <trkpt lat="49.53723" lon="-1.53681">
        <ele>75.6</ele>
        <time>2022-04-03T09:45:19Z</time>
      </trkpt>
      <trkpt lat="49.53722" lon="-1.53678">
        <ele>75.6</ele>
        <time>2022-04-03T09:45:21Z</time>
      </trkpt>
      <trkpt lat="49.53708" lon="-1.53645">
        <ele>76.08</ele>
        <time>2022-04-03T09:45:38Z</time>
      </trkpt>
      <trkpt lat="49.53694" lon="-1.53611">
        <ele>77.04</ele>
        <time>2022-04-03T09:45:56Z</time>
      </trkpt>
      <trkpt lat="49.53681" lon="-1.53582">
        <ele>77.52</ele>
        <time>2022-04-03T09:46:11Z</time>
      </trkpt>
      <trkpt lat="49.53668" lon="-1.53552">
        <ele>78</ele>
        <time>2022-04-03T09:46:27Z</time>
      </trkpt>
      <trkpt lat="49.53665" lon="-1.53549">
        <ele>78.48</ele>
        <time>2022-04-03T09:46:30Z</time>
      </trkpt>
      <trkpt lat="49.53659" lon="-1.53547">
        <ele>78.48</ele>
        <time>2022-04-03T09:46:35Z</time>
      </trkpt>
      <trkpt lat="49.53654" lon="-1.5355">
        <ele>73.68</ele>
        <time>2022-04-03T09:46:40Z</time>
      </trkpt>
    </trkseg>
  </trk>
</gpx>